<?xml version="1.0" encoding="UTF-8" standalone="no" ?>
<gpx xmlns="http://www.topografix.com/GPX/1/1" xmlns:xsi="http://www.w3.org/2001/XMLSchema-instance" xsi:schemaLocation="http://www.topografix.com/GPX/1/1 http://www.topografix.com/GPX/1/1/gpx.xsd" version="1.1" creator="VisuGPX - https://www.visugpx.com">
  <metadata>
    <name>Les Ollieres sur Eyrieux Chambon de Bavas</name>
  </metadata>
  <trk>
    <name><![CDATA[Les Ollieres sur Eyrieux - 080320 MBO N2]]></name>
    <trkseg>
      <trkpt lat="44.80427" lon="4.61269">
        <ele>199.59</ele>
        <time>2020-03-08T08:55:04Z</time>
      </trkpt>
      <trkpt lat="44.80422" lon="4.61274">
        <ele>186.93</ele>
        <time>2020-03-08T08:58:43Z</time>
      </trkpt>
      <trkpt lat="44.80418" lon="4.61284">
        <ele>187.14</ele>
        <time>2020-03-08T08:59:37Z</time>
      </trkpt>
      <trkpt lat="44.80421" lon="4.61311">
        <ele>185.12</ele>
        <time>2020-03-08T08:59:54Z</time>
      </trkpt>
      <trkpt lat="44.80421" lon="4.61337">
        <ele>182.99</ele>
        <time>2020-03-08T09:00:11Z</time>
      </trkpt>
      <trkpt lat="44.80429" lon="4.6136">
        <ele>180.5</ele>
        <time>2020-03-08T09:00:30Z</time>
      </trkpt>
      <trkpt lat="44.80425" lon="4.61386">
        <ele>177.5</ele>
        <time>2020-03-08T09:00:59Z</time>
      </trkpt>
      <trkpt lat="44.80422" lon="4.61412">
        <ele>173.21</ele>
        <time>2020-03-08T09:01:17Z</time>
      </trkpt>
      <trkpt lat="44.80411" lon="4.61426">
        <ele>172.56</ele>
        <time>2020-03-08T09:01:37Z</time>
      </trkpt>
      <trkpt lat="44.80393" lon="4.61439">
        <ele>171.52</ele>
        <time>2020-03-08T09:02:27Z</time>
      </trkpt>
      <trkpt lat="44.80396" lon="4.61436">
        <ele>171.89</ele>
        <time>2020-03-08T09:03:00Z</time>
      </trkpt>
      <trkpt lat="44.80386" lon="4.61454">
        <ele>171</ele>
        <time>2020-03-08T09:03:34Z</time>
      </trkpt>
      <trkpt lat="44.80376" lon="4.61477">
        <ele>170.22</ele>
        <time>2020-03-08T09:04:09Z</time>
      </trkpt>
      <trkpt lat="44.80366" lon="4.615">
        <ele>170.59</ele>
        <time>2020-03-08T09:04:27Z</time>
      </trkpt>
      <trkpt lat="44.80354" lon="4.61521">
        <ele>170.07</ele>
        <time>2020-03-08T09:04:46Z</time>
      </trkpt>
      <trkpt lat="44.8034" lon="4.61545">
        <ele>169.93</ele>
        <time>2020-03-08T09:05:05Z</time>
      </trkpt>
      <trkpt lat="44.80329" lon="4.61568">
        <ele>169.87</ele>
        <time>2020-03-08T09:05:22Z</time>
      </trkpt>
      <trkpt lat="44.80321" lon="4.61594">
        <ele>169.84</ele>
        <time>2020-03-08T09:05:38Z</time>
      </trkpt>
      <trkpt lat="44.80315" lon="4.61619">
        <ele>169.64</ele>
        <time>2020-03-08T09:05:54Z</time>
      </trkpt>
      <trkpt lat="44.80309" lon="4.61643">
        <ele>169.47</ele>
        <time>2020-03-08T09:06:11Z</time>
      </trkpt>
      <trkpt lat="44.80301" lon="4.61667">
        <ele>170.06</ele>
        <time>2020-03-08T09:06:29Z</time>
      </trkpt>
      <trkpt lat="44.80293" lon="4.61691">
        <ele>169.85</ele>
        <time>2020-03-08T09:06:46Z</time>
      </trkpt>
      <trkpt lat="44.80284" lon="4.61713">
        <ele>169.55</ele>
        <time>2020-03-08T09:07:03Z</time>
      </trkpt>
      <trkpt lat="44.80277" lon="4.6174">
        <ele>169.47</ele>
        <time>2020-03-08T09:07:20Z</time>
      </trkpt>
      <trkpt lat="44.80267" lon="4.61763">
        <ele>169.06</ele>
        <time>2020-03-08T09:07:38Z</time>
      </trkpt>
      <trkpt lat="44.80264" lon="4.61789">
        <ele>168.18</ele>
        <time>2020-03-08T09:07:55Z</time>
      </trkpt>
      <trkpt lat="44.80261" lon="4.61816">
        <ele>167.11</ele>
        <time>2020-03-08T09:08:16Z</time>
      </trkpt>
      <trkpt lat="44.80252" lon="4.61838">
        <ele>167.33</ele>
        <time>2020-03-08T09:08:34Z</time>
      </trkpt>
      <trkpt lat="44.80261" lon="4.61861">
        <ele>166.92</ele>
        <time>2020-03-08T09:08:52Z</time>
      </trkpt>
      <trkpt lat="44.80267" lon="4.61888">
        <ele>166.64</ele>
        <time>2020-03-08T09:09:10Z</time>
      </trkpt>
      <trkpt lat="44.80262" lon="4.61914">
        <ele>166.07</ele>
        <time>2020-03-08T09:09:27Z</time>
      </trkpt>
      <trkpt lat="44.80255" lon="4.61941">
        <ele>167.34</ele>
        <time>2020-03-08T09:09:47Z</time>
      </trkpt>
      <trkpt lat="44.80245" lon="4.61966">
        <ele>168.15</ele>
        <time>2020-03-08T09:10:15Z</time>
      </trkpt>
      <trkpt lat="44.80227" lon="4.61975">
        <ele>170.75</ele>
        <time>2020-03-08T09:10:39Z</time>
      </trkpt>
      <trkpt lat="44.8021" lon="4.61992">
        <ele>173.43</ele>
        <time>2020-03-08T09:11:02Z</time>
      </trkpt>
      <trkpt lat="44.80193" lon="4.62006">
        <ele>176.06</ele>
        <time>2020-03-08T09:11:25Z</time>
      </trkpt>
      <trkpt lat="44.80185" lon="4.62029">
        <ele>180.69</ele>
        <time>2020-03-08T09:11:53Z</time>
      </trkpt>
      <trkpt lat="44.8018" lon="4.62053">
        <ele>184.56</ele>
        <time>2020-03-08T09:12:36Z</time>
      </trkpt>
      <trkpt lat="44.80181" lon="4.62081">
        <ele>189.29</ele>
        <time>2020-03-08T09:13:08Z</time>
      </trkpt>
      <trkpt lat="44.80185" lon="4.62108">
        <ele>191.08</ele>
        <time>2020-03-08T09:13:33Z</time>
      </trkpt>
      <trkpt lat="44.80191" lon="4.62137">
        <ele>192.37</ele>
        <time>2020-03-08T09:13:57Z</time>
      </trkpt>
      <trkpt lat="44.80196" lon="4.62167">
        <ele>195.28</ele>
        <time>2020-03-08T09:14:22Z</time>
      </trkpt>
      <trkpt lat="44.80197" lon="4.62203">
        <ele>198</ele>
        <time>2020-03-08T09:14:50Z</time>
      </trkpt>
      <trkpt lat="44.80196" lon="4.62232">
        <ele>201.77</ele>
        <time>2020-03-08T09:15:16Z</time>
      </trkpt>
      <trkpt lat="44.80196" lon="4.62264">
        <ele>205.89</ele>
        <time>2020-03-08T09:15:44Z</time>
      </trkpt>
      <trkpt lat="44.80196" lon="4.62302">
        <ele>211.43</ele>
        <time>2020-03-08T09:16:14Z</time>
      </trkpt>
      <trkpt lat="44.80186" lon="4.62325">
        <ele>217.04</ele>
        <time>2020-03-08T09:16:47Z</time>
      </trkpt>
      <trkpt lat="44.80174" lon="4.62354">
        <ele>222.28</ele>
        <time>2020-03-08T09:17:14Z</time>
      </trkpt>
      <trkpt lat="44.8018" lon="4.62379">
        <ele>226.25</ele>
        <time>2020-03-08T09:17:44Z</time>
      </trkpt>
      <trkpt lat="44.80188" lon="4.62408">
        <ele>229.65</ele>
        <time>2020-03-08T09:18:21Z</time>
      </trkpt>
      <trkpt lat="44.80196" lon="4.62439">
        <ele>233.99</ele>
        <time>2020-03-08T09:18:56Z</time>
      </trkpt>
      <trkpt lat="44.80206" lon="4.62467">
        <ele>238.35</ele>
        <time>2020-03-08T09:19:36Z</time>
      </trkpt>
      <trkpt lat="44.80219" lon="4.62491">
        <ele>242.73</ele>
        <time>2020-03-08T09:20:13Z</time>
      </trkpt>
      <trkpt lat="44.80215" lon="4.62526">
        <ele>243.51</ele>
        <time>2020-03-08T09:20:46Z</time>
      </trkpt>
      <trkpt lat="44.80237" lon="4.62535">
        <ele>240.07</ele>
        <time>2020-03-08T09:21:16Z</time>
      </trkpt>
      <trkpt lat="44.80257" lon="4.62554">
        <ele>242.18</ele>
        <time>2020-03-08T09:21:48Z</time>
      </trkpt>
      <trkpt lat="44.80271" lon="4.62574">
        <ele>244.25</ele>
        <time>2020-03-08T09:22:17Z</time>
      </trkpt>
      <trkpt lat="44.80272" lon="4.62607">
        <ele>246.91</ele>
        <time>2020-03-08T09:22:47Z</time>
      </trkpt>
      <trkpt lat="44.80271" lon="4.62639">
        <ele>248.71</ele>
        <time>2020-03-08T09:23:16Z</time>
      </trkpt>
      <trkpt lat="44.80263" lon="4.62674">
        <ele>252.5</ele>
        <time>2020-03-08T09:23:51Z</time>
      </trkpt>
      <trkpt lat="44.80255" lon="4.62691">
        <ele>253.27</ele>
        <time>2020-03-08T09:24:42Z</time>
      </trkpt>
      <trkpt lat="44.80236" lon="4.62711">
        <ele>255.39</ele>
        <time>2020-03-08T09:25:09Z</time>
      </trkpt>
      <trkpt lat="44.80228" lon="4.62739">
        <ele>257.35</ele>
        <time>2020-03-08T09:25:38Z</time>
      </trkpt>
      <trkpt lat="44.80241" lon="4.62766">
        <ele>261.13</ele>
        <time>2020-03-08T09:26:15Z</time>
      </trkpt>
      <trkpt lat="44.80251" lon="4.62796">
        <ele>265.05</ele>
        <time>2020-03-08T09:26:47Z</time>
      </trkpt>
      <trkpt lat="44.80253" lon="4.6283">
        <ele>268.15</ele>
        <time>2020-03-08T09:27:18Z</time>
      </trkpt>
      <trkpt lat="44.80244" lon="4.62865">
        <ele>271.7</ele>
        <time>2020-03-08T09:27:49Z</time>
      </trkpt>
      <trkpt lat="44.80244" lon="4.62897">
        <ele>274.97</ele>
        <time>2020-03-08T09:28:18Z</time>
      </trkpt>
      <trkpt lat="44.80248" lon="4.62924">
        <ele>276.63</ele>
        <time>2020-03-08T09:28:41Z</time>
      </trkpt>
      <trkpt lat="44.80244" lon="4.62936">
        <ele>277.98</ele>
        <time>2020-03-08T09:29:22Z</time>
      </trkpt>
      <trkpt lat="44.80221" lon="4.62956">
        <ele>282.27</ele>
        <time>2020-03-08T09:29:52Z</time>
      </trkpt>
      <trkpt lat="44.80203" lon="4.62973">
        <ele>283.67</ele>
        <time>2020-03-08T09:30:22Z</time>
      </trkpt>
      <trkpt lat="44.80181" lon="4.62991">
        <ele>285.94</ele>
        <time>2020-03-08T09:30:53Z</time>
      </trkpt>
      <trkpt lat="44.8016" lon="4.63017">
        <ele>288.04</ele>
        <time>2020-03-08T09:31:20Z</time>
      </trkpt>
      <trkpt lat="44.8014" lon="4.63041">
        <ele>292.44</ele>
        <time>2020-03-08T09:31:55Z</time>
      </trkpt>
      <trkpt lat="44.80118" lon="4.63053">
        <ele>298.72</ele>
        <time>2020-03-08T09:32:36Z</time>
      </trkpt>
      <trkpt lat="44.80097" lon="4.63061">
        <ele>303.76</ele>
        <time>2020-03-08T09:33:13Z</time>
      </trkpt>
      <trkpt lat="44.80077" lon="4.6306">
        <ele>306.42</ele>
        <time>2020-03-08T09:33:43Z</time>
      </trkpt>
      <trkpt lat="44.80062" lon="4.63041">
        <ele>309.41</ele>
        <time>2020-03-08T09:34:11Z</time>
      </trkpt>
      <trkpt lat="44.80051" lon="4.63013">
        <ele>312.1</ele>
        <time>2020-03-08T09:34:40Z</time>
      </trkpt>
      <trkpt lat="44.80043" lon="4.6299">
        <ele>315.14</ele>
        <time>2020-03-08T09:35:12Z</time>
      </trkpt>
      <trkpt lat="44.80022" lon="4.62967">
        <ele>316.49</ele>
        <time>2020-03-08T09:35:43Z</time>
      </trkpt>
      <trkpt lat="44.8002" lon="4.62989">
        <ele>316.72</ele>
        <time>2020-03-08T09:36:13Z</time>
      </trkpt>
      <trkpt lat="44.80013" lon="4.63015">
        <ele>319.58</ele>
        <time>2020-03-08T09:36:40Z</time>
      </trkpt>
      <trkpt lat="44.79996" lon="4.63039">
        <ele>323.24</ele>
        <time>2020-03-08T09:37:15Z</time>
      </trkpt>
      <trkpt lat="44.79986" lon="4.63061">
        <ele>326.43</ele>
        <time>2020-03-08T09:37:57Z</time>
      </trkpt>
      <trkpt lat="44.79983" lon="4.63062">
        <ele>326.29</ele>
        <time>2020-03-08T09:40:22Z</time>
      </trkpt>
      <trkpt lat="44.79977" lon="4.63073">
        <ele>327.94</ele>
        <time>2020-03-08T09:43:07Z</time>
      </trkpt>
      <trkpt lat="44.79953" lon="4.63085">
        <ele>333.24</ele>
        <time>2020-03-08T09:43:46Z</time>
      </trkpt>
      <trkpt lat="44.79928" lon="4.63092">
        <ele>337.97</ele>
        <time>2020-03-08T09:44:24Z</time>
      </trkpt>
      <trkpt lat="44.79906" lon="4.6311">
        <ele>344.27</ele>
        <time>2020-03-08T09:45:07Z</time>
      </trkpt>
      <trkpt lat="44.79888" lon="4.63123">
        <ele>348.23</ele>
        <time>2020-03-08T09:45:46Z</time>
      </trkpt>
      <trkpt lat="44.79865" lon="4.63136">
        <ele>352.08</ele>
        <time>2020-03-08T09:46:18Z</time>
      </trkpt>
      <trkpt lat="44.7984" lon="4.63146">
        <ele>355.73</ele>
        <time>2020-03-08T09:46:54Z</time>
      </trkpt>
      <trkpt lat="44.79818" lon="4.63162">
        <ele>360.56</ele>
        <time>2020-03-08T09:47:34Z</time>
      </trkpt>
      <trkpt lat="44.79811" lon="4.63186">
        <ele>363.97</ele>
        <time>2020-03-08T09:48:16Z</time>
      </trkpt>
      <trkpt lat="44.79829" lon="4.63201">
        <ele>368.15</ele>
        <time>2020-03-08T09:48:51Z</time>
      </trkpt>
      <trkpt lat="44.79847" lon="4.63221">
        <ele>373.84</ele>
        <time>2020-03-08T09:49:31Z</time>
      </trkpt>
      <trkpt lat="44.79867" lon="4.6324">
        <ele>379.13</ele>
        <time>2020-03-08T09:50:10Z</time>
      </trkpt>
      <trkpt lat="44.79886" lon="4.63258">
        <ele>383.83</ele>
        <time>2020-03-08T09:50:47Z</time>
      </trkpt>
      <trkpt lat="44.79887" lon="4.63275">
        <ele>388.71</ele>
        <time>2020-03-08T09:51:23Z</time>
      </trkpt>
      <trkpt lat="44.79866" lon="4.63274">
        <ele>391.48</ele>
        <time>2020-03-08T09:51:58Z</time>
      </trkpt>
      <trkpt lat="44.79843" lon="4.63274">
        <ele>393.64</ele>
        <time>2020-03-08T09:52:28Z</time>
      </trkpt>
      <trkpt lat="44.79816" lon="4.63275">
        <ele>396.75</ele>
        <time>2020-03-08T09:53:00Z</time>
      </trkpt>
      <trkpt lat="44.79793" lon="4.63267">
        <ele>397.76</ele>
        <time>2020-03-08T09:53:25Z</time>
      </trkpt>
      <trkpt lat="44.79771" lon="4.63256">
        <ele>397.99</ele>
        <time>2020-03-08T09:53:50Z</time>
      </trkpt>
      <trkpt lat="44.79746" lon="4.63239">
        <ele>399.04</ele>
        <time>2020-03-08T09:54:17Z</time>
      </trkpt>
      <trkpt lat="44.79728" lon="4.63221">
        <ele>401.95</ele>
        <time>2020-03-08T09:54:50Z</time>
      </trkpt>
      <trkpt lat="44.79726" lon="4.63202">
        <ele>403.34</ele>
        <time>2020-03-08T09:56:03Z</time>
      </trkpt>
      <trkpt lat="44.79721" lon="4.63164">
        <ele>405.78</ele>
        <time>2020-03-08T09:56:34Z</time>
      </trkpt>
      <trkpt lat="44.79727" lon="4.63126">
        <ele>408.93</ele>
        <time>2020-03-08T09:57:08Z</time>
      </trkpt>
      <trkpt lat="44.79729" lon="4.63096">
        <ele>412.53</ele>
        <time>2020-03-08T09:57:42Z</time>
      </trkpt>
      <trkpt lat="44.79711" lon="4.63118">
        <ele>416.36</ele>
        <time>2020-03-08T09:58:21Z</time>
      </trkpt>
      <trkpt lat="44.79696" lon="4.6315">
        <ele>419.15</ele>
        <time>2020-03-08T09:58:53Z</time>
      </trkpt>
      <trkpt lat="44.79688" lon="4.63184">
        <ele>421.01</ele>
        <time>2020-03-08T09:59:23Z</time>
      </trkpt>
      <trkpt lat="44.7969" lon="4.63216">
        <ele>422.61</ele>
        <time>2020-03-08T09:59:49Z</time>
      </trkpt>
      <trkpt lat="44.79697" lon="4.63249">
        <ele>424.39</ele>
        <time>2020-03-08T10:00:17Z</time>
      </trkpt>
      <trkpt lat="44.79707" lon="4.63279">
        <ele>426.2</ele>
        <time>2020-03-08T10:00:42Z</time>
      </trkpt>
      <trkpt lat="44.79711" lon="4.63311">
        <ele>430.7</ele>
        <time>2020-03-08T10:01:14Z</time>
      </trkpt>
      <trkpt lat="44.79723" lon="4.63341">
        <ele>433.18</ele>
        <time>2020-03-08T10:01:45Z</time>
      </trkpt>
      <trkpt lat="44.7973" lon="4.63368">
        <ele>437.38</ele>
        <time>2020-03-08T10:02:18Z</time>
      </trkpt>
      <trkpt lat="44.79735" lon="4.63398">
        <ele>440.17</ele>
        <time>2020-03-08T10:02:48Z</time>
      </trkpt>
      <trkpt lat="44.79744" lon="4.63424">
        <ele>442.78</ele>
        <time>2020-03-08T10:03:11Z</time>
      </trkpt>
      <trkpt lat="44.7974" lon="4.63455">
        <ele>444.05</ele>
        <time>2020-03-08T10:03:36Z</time>
      </trkpt>
      <trkpt lat="44.79746" lon="4.63479">
        <ele>443.98</ele>
        <time>2020-03-08T10:04:11Z</time>
      </trkpt>
      <trkpt lat="44.79753" lon="4.63501">
        <ele>442.14</ele>
        <time>2020-03-08T10:04:32Z</time>
      </trkpt>
      <trkpt lat="44.79754" lon="4.63527">
        <ele>438.83</ele>
        <time>2020-03-08T10:04:55Z</time>
      </trkpt>
      <trkpt lat="44.7977" lon="4.63538">
        <ele>438.54</ele>
        <time>2020-03-08T10:05:23Z</time>
      </trkpt>
      <trkpt lat="44.79789" lon="4.63546">
        <ele>436.84</ele>
        <time>2020-03-08T10:05:55Z</time>
      </trkpt>
      <trkpt lat="44.79815" lon="4.63544">
        <ele>434.7</ele>
        <time>2020-03-08T10:06:19Z</time>
      </trkpt>
      <trkpt lat="44.79838" lon="4.63545">
        <ele>433.42</ele>
        <time>2020-03-08T10:06:39Z</time>
      </trkpt>
      <trkpt lat="44.79835" lon="4.63556">
        <ele>432.25</ele>
        <time>2020-03-08T10:07:00Z</time>
      </trkpt>
      <trkpt lat="44.79817" lon="4.63568">
        <ele>430.58</ele>
        <time>2020-03-08T10:07:22Z</time>
      </trkpt>
      <trkpt lat="44.79794" lon="4.63577">
        <ele>429.65</ele>
        <time>2020-03-08T10:07:50Z</time>
      </trkpt>
      <trkpt lat="44.79771" lon="4.63577">
        <ele>427.93</ele>
        <time>2020-03-08T10:08:13Z</time>
      </trkpt>
      <trkpt lat="44.79747" lon="4.63581">
        <ele>426.81</ele>
        <time>2020-03-08T10:08:33Z</time>
      </trkpt>
      <trkpt lat="44.79724" lon="4.63587">
        <ele>426.01</ele>
        <time>2020-03-08T10:08:55Z</time>
      </trkpt>
      <trkpt lat="44.79701" lon="4.63597">
        <ele>423.59</ele>
        <time>2020-03-08T10:09:16Z</time>
      </trkpt>
      <trkpt lat="44.79681" lon="4.63609">
        <ele>420.06</ele>
        <time>2020-03-08T10:09:35Z</time>
      </trkpt>
      <trkpt lat="44.7966" lon="4.6362">
        <ele>417.3</ele>
        <time>2020-03-08T10:09:58Z</time>
      </trkpt>
      <trkpt lat="44.79639" lon="4.63633">
        <ele>416.07</ele>
        <time>2020-03-08T10:10:18Z</time>
      </trkpt>
      <trkpt lat="44.79614" lon="4.63642">
        <ele>415.63</ele>
        <time>2020-03-08T10:10:41Z</time>
      </trkpt>
      <trkpt lat="44.79588" lon="4.63648">
        <ele>414.41</ele>
        <time>2020-03-08T10:11:07Z</time>
      </trkpt>
      <trkpt lat="44.7956" lon="4.63653">
        <ele>411.63</ele>
        <time>2020-03-08T10:11:32Z</time>
      </trkpt>
      <trkpt lat="44.79537" lon="4.63646">
        <ele>408.86</ele>
        <time>2020-03-08T10:11:55Z</time>
      </trkpt>
      <trkpt lat="44.79511" lon="4.63631">
        <ele>406.61</ele>
        <time>2020-03-08T10:12:19Z</time>
      </trkpt>
      <trkpt lat="44.79489" lon="4.63618">
        <ele>404.72</ele>
        <time>2020-03-08T10:12:41Z</time>
      </trkpt>
      <trkpt lat="44.79468" lon="4.63609">
        <ele>401.8</ele>
        <time>2020-03-08T10:13:01Z</time>
      </trkpt>
      <trkpt lat="44.79446" lon="4.63603">
        <ele>399.51</ele>
        <time>2020-03-08T10:13:20Z</time>
      </trkpt>
      <trkpt lat="44.79424" lon="4.63597">
        <ele>399.14</ele>
        <time>2020-03-08T10:13:38Z</time>
      </trkpt>
      <trkpt lat="44.79403" lon="4.6359">
        <ele>398.35</ele>
        <time>2020-03-08T10:13:56Z</time>
      </trkpt>
      <trkpt lat="44.7938" lon="4.63594">
        <ele>394.53</ele>
        <time>2020-03-08T10:14:19Z</time>
      </trkpt>
      <trkpt lat="44.79358" lon="4.63592">
        <ele>391.68</ele>
        <time>2020-03-08T10:14:37Z</time>
      </trkpt>
      <trkpt lat="44.79341" lon="4.63579">
        <ele>388.14</ele>
        <time>2020-03-08T10:14:56Z</time>
      </trkpt>
      <trkpt lat="44.79319" lon="4.63575">
        <ele>384.67</ele>
        <time>2020-03-08T10:15:19Z</time>
      </trkpt>
      <trkpt lat="44.79302" lon="4.63598">
        <ele>380.93</ele>
        <time>2020-03-08T10:15:47Z</time>
      </trkpt>
      <trkpt lat="44.79279" lon="4.63605">
        <ele>378.53</ele>
        <time>2020-03-08T10:16:11Z</time>
      </trkpt>
      <trkpt lat="44.79257" lon="4.63606">
        <ele>376.3</ele>
        <time>2020-03-08T10:16:32Z</time>
      </trkpt>
      <trkpt lat="44.79237" lon="4.63613">
        <ele>374.91</ele>
        <time>2020-03-08T10:16:54Z</time>
      </trkpt>
      <trkpt lat="44.79213" lon="4.63608">
        <ele>370.84</ele>
        <time>2020-03-08T10:17:21Z</time>
      </trkpt>
      <trkpt lat="44.79186" lon="4.63609">
        <ele>369.01</ele>
        <time>2020-03-08T10:17:45Z</time>
      </trkpt>
      <trkpt lat="44.79162" lon="4.63633">
        <ele>366.16</ele>
        <time>2020-03-08T10:18:11Z</time>
      </trkpt>
      <trkpt lat="44.79142" lon="4.63639">
        <ele>360.75</ele>
        <time>2020-03-08T10:18:34Z</time>
      </trkpt>
      <trkpt lat="44.79138" lon="4.6361">
        <ele>356.77</ele>
        <time>2020-03-08T10:19:03Z</time>
      </trkpt>
      <trkpt lat="44.79161" lon="4.63592">
        <ele>356.04</ele>
        <time>2020-03-08T10:19:25Z</time>
      </trkpt>
      <trkpt lat="44.79161" lon="4.63568">
        <ele>356.27</ele>
        <time>2020-03-08T10:19:51Z</time>
      </trkpt>
      <trkpt lat="44.7916" lon="4.63581">
        <ele>355.88</ele>
        <time>2020-03-08T10:20:49Z</time>
      </trkpt>
      <trkpt lat="44.79158" lon="4.63581">
        <ele>356.13</ele>
        <time>2020-03-08T10:21:38Z</time>
      </trkpt>
      <trkpt lat="44.79169" lon="4.63562">
        <ele>357.88</ele>
        <time>2020-03-08T10:22:35Z</time>
      </trkpt>
      <trkpt lat="44.79174" lon="4.63555">
        <ele>360.71</ele>
        <time>2020-03-08T10:23:45Z</time>
      </trkpt>
      <trkpt lat="44.79177" lon="4.6356">
        <ele>361.84</ele>
        <time>2020-03-08T10:26:36Z</time>
      </trkpt>
      <trkpt lat="44.79164" lon="4.63556">
        <ele>365.04</ele>
        <time>2020-03-08T10:29:00Z</time>
      </trkpt>
      <trkpt lat="44.79135" lon="4.63548">
        <ele>370.33</ele>
        <time>2020-03-08T10:29:40Z</time>
      </trkpt>
      <trkpt lat="44.79113" lon="4.63556">
        <ele>374.21</ele>
        <time>2020-03-08T10:30:18Z</time>
      </trkpt>
      <trkpt lat="44.79094" lon="4.63572">
        <ele>378.15</ele>
        <time>2020-03-08T10:30:46Z</time>
      </trkpt>
      <trkpt lat="44.79064" lon="4.63584">
        <ele>380.16</ele>
        <time>2020-03-08T10:31:19Z</time>
      </trkpt>
      <trkpt lat="44.79039" lon="4.63604">
        <ele>383.89</ele>
        <time>2020-03-08T10:31:53Z</time>
      </trkpt>
      <trkpt lat="44.79018" lon="4.63633">
        <ele>386.81</ele>
        <time>2020-03-08T10:32:26Z</time>
      </trkpt>
      <trkpt lat="44.79002" lon="4.63639">
        <ele>390.43</ele>
        <time>2020-03-08T10:33:01Z</time>
      </trkpt>
      <trkpt lat="44.7901" lon="4.63611">
        <ele>393.25</ele>
        <time>2020-03-08T10:33:38Z</time>
      </trkpt>
      <trkpt lat="44.7902" lon="4.63577">
        <ele>395.72</ele>
        <time>2020-03-08T10:34:10Z</time>
      </trkpt>
      <trkpt lat="44.79023" lon="4.63544">
        <ele>398.65</ele>
        <time>2020-03-08T10:34:43Z</time>
      </trkpt>
      <trkpt lat="44.7902" lon="4.63507">
        <ele>398.78</ele>
        <time>2020-03-08T10:35:18Z</time>
      </trkpt>
      <trkpt lat="44.79028" lon="4.6347">
        <ele>400.08</ele>
        <time>2020-03-08T10:35:56Z</time>
      </trkpt>
      <trkpt lat="44.79002" lon="4.63428">
        <ele>403</ele>
        <time>2020-03-08T10:36:30Z</time>
      </trkpt>
      <trkpt lat="44.78988" lon="4.63437">
        <ele>406.38</ele>
        <time>2020-03-08T10:37:01Z</time>
      </trkpt>
      <trkpt lat="44.7897" lon="4.63454">
        <ele>410.28</ele>
        <time>2020-03-08T10:37:40Z</time>
      </trkpt>
      <trkpt lat="44.78955" lon="4.63481">
        <ele>413.62</ele>
        <time>2020-03-08T10:38:29Z</time>
      </trkpt>
      <trkpt lat="44.78935" lon="4.63496">
        <ele>417.65</ele>
        <time>2020-03-08T10:39:03Z</time>
      </trkpt>
      <trkpt lat="44.78918" lon="4.63515">
        <ele>423.23</ele>
        <time>2020-03-08T10:39:42Z</time>
      </trkpt>
      <trkpt lat="44.78911" lon="4.63542">
        <ele>427.59</ele>
        <time>2020-03-08T10:40:15Z</time>
      </trkpt>
      <trkpt lat="44.78903" lon="4.63573">
        <ele>430.3</ele>
        <time>2020-03-08T10:41:05Z</time>
      </trkpt>
      <trkpt lat="44.7889" lon="4.63589">
        <ele>432.49</ele>
        <time>2020-03-08T10:41:43Z</time>
      </trkpt>
      <trkpt lat="44.7888" lon="4.63609">
        <ele>434.33</ele>
        <time>2020-03-08T10:42:22Z</time>
      </trkpt>
      <trkpt lat="44.78871" lon="4.63633">
        <ele>435.44</ele>
        <time>2020-03-08T10:42:40Z</time>
      </trkpt>
      <trkpt lat="44.78862" lon="4.63653">
        <ele>436</ele>
        <time>2020-03-08T10:43:37Z</time>
      </trkpt>
      <trkpt lat="44.78849" lon="4.6367">
        <ele>437.13</ele>
        <time>2020-03-08T10:44:05Z</time>
      </trkpt>
      <trkpt lat="44.78839" lon="4.63692">
        <ele>438.77</ele>
        <time>2020-03-08T10:44:19Z</time>
      </trkpt>
      <trkpt lat="44.78825" lon="4.63712">
        <ele>441.54</ele>
        <time>2020-03-08T10:44:50Z</time>
      </trkpt>
      <trkpt lat="44.78822" lon="4.63722">
        <ele>442.46</ele>
        <time>2020-03-08T10:46:13Z</time>
      </trkpt>
      <trkpt lat="44.78835" lon="4.63737">
        <ele>442.12</ele>
        <time>2020-03-08T10:46:51Z</time>
      </trkpt>
      <trkpt lat="44.7884" lon="4.63729">
        <ele>442.57</ele>
        <time>2020-03-08T10:48:23Z</time>
      </trkpt>
      <trkpt lat="44.78837" lon="4.63737">
        <ele>443.13</ele>
        <time>2020-03-08T10:49:26Z</time>
      </trkpt>
      <trkpt lat="44.78833" lon="4.63727">
        <ele>443.19</ele>
        <time>2020-03-08T10:50:05Z</time>
      </trkpt>
      <trkpt lat="44.78821" lon="4.63735">
        <ele>445.72</ele>
        <time>2020-03-08T10:50:55Z</time>
      </trkpt>
      <trkpt lat="44.78824" lon="4.63758">
        <ele>449.5</ele>
        <time>2020-03-08T10:51:54Z</time>
      </trkpt>
      <trkpt lat="44.78821" lon="4.6377">
        <ele>453.82</ele>
        <time>2020-03-08T10:55:48Z</time>
      </trkpt>
      <trkpt lat="44.78814" lon="4.63791">
        <ele>458.68</ele>
        <time>2020-03-08T10:57:34Z</time>
      </trkpt>
      <trkpt lat="44.78795" lon="4.63788">
        <ele>461.28</ele>
        <time>2020-03-08T10:58:07Z</time>
      </trkpt>
      <trkpt lat="44.78772" lon="4.63789">
        <ele>463.95</ele>
        <time>2020-03-08T10:58:40Z</time>
      </trkpt>
      <trkpt lat="44.78763" lon="4.63787">
        <ele>464.08</ele>
        <time>2020-03-08T10:59:32Z</time>
      </trkpt>
      <trkpt lat="44.78779" lon="4.63793">
        <ele>463.77</ele>
        <time>2020-03-08T11:00:23Z</time>
      </trkpt>
      <trkpt lat="44.7878" lon="4.63821">
        <ele>463.42</ele>
        <time>2020-03-08T11:00:57Z</time>
      </trkpt>
      <trkpt lat="44.78783" lon="4.63847">
        <ele>462.85</ele>
        <time>2020-03-08T11:01:33Z</time>
      </trkpt>
      <trkpt lat="44.78784" lon="4.63877">
        <ele>464.26</ele>
        <time>2020-03-08T11:01:55Z</time>
      </trkpt>
      <trkpt lat="44.78784" lon="4.63909">
        <ele>462.75</ele>
        <time>2020-03-08T11:02:19Z</time>
      </trkpt>
      <trkpt lat="44.78784" lon="4.63941">
        <ele>462.24</ele>
        <time>2020-03-08T11:02:41Z</time>
      </trkpt>
      <trkpt lat="44.78786" lon="4.63972">
        <ele>465.45</ele>
        <time>2020-03-08T11:03:37Z</time>
      </trkpt>
      <trkpt lat="44.78796" lon="4.63994">
        <ele>467.84</ele>
        <time>2020-03-08T11:04:09Z</time>
      </trkpt>
      <trkpt lat="44.78813" lon="4.64005">
        <ele>469.52</ele>
        <time>2020-03-08T11:05:03Z</time>
      </trkpt>
      <trkpt lat="44.78822" lon="4.63997">
        <ele>469.26</ele>
        <time>2020-03-08T11:06:27Z</time>
      </trkpt>
      <trkpt lat="44.78838" lon="4.64006">
        <ele>469.22</ele>
        <time>2020-03-08T11:06:54Z</time>
      </trkpt>
      <trkpt lat="44.78857" lon="4.64004">
        <ele>469.45</ele>
        <time>2020-03-08T11:07:27Z</time>
      </trkpt>
      <trkpt lat="44.78875" lon="4.63995">
        <ele>468.9</ele>
        <time>2020-03-08T11:07:44Z</time>
      </trkpt>
      <trkpt lat="44.78895" lon="4.63986">
        <ele>468.61</ele>
        <time>2020-03-08T11:08:03Z</time>
      </trkpt>
      <trkpt lat="44.78914" lon="4.63983">
        <ele>469.23</ele>
        <time>2020-03-08T11:08:20Z</time>
      </trkpt>
      <trkpt lat="44.78936" lon="4.63982">
        <ele>470.24</ele>
        <time>2020-03-08T11:08:40Z</time>
      </trkpt>
      <trkpt lat="44.78934" lon="4.64008">
        <ele>473.96</ele>
        <time>2020-03-08T11:09:14Z</time>
      </trkpt>
      <trkpt lat="44.78927" lon="4.64032">
        <ele>476.44</ele>
        <time>2020-03-08T11:09:46Z</time>
      </trkpt>
      <trkpt lat="44.78917" lon="4.64052">
        <ele>477.89</ele>
        <time>2020-03-08T11:11:38Z</time>
      </trkpt>
      <trkpt lat="44.78903" lon="4.64074">
        <ele>480.41</ele>
        <time>2020-03-08T11:12:20Z</time>
      </trkpt>
      <trkpt lat="44.7889" lon="4.64092">
        <ele>482.34</ele>
        <time>2020-03-08T11:12:51Z</time>
      </trkpt>
      <trkpt lat="44.78864" lon="4.64095">
        <ele>485.83</ele>
        <time>2020-03-08T11:13:25Z</time>
      </trkpt>
      <trkpt lat="44.78867" lon="4.64118">
        <ele>487.47</ele>
        <time>2020-03-08T11:13:52Z</time>
      </trkpt>
      <trkpt lat="44.78861" lon="4.64149">
        <ele>488.85</ele>
        <time>2020-03-08T11:14:18Z</time>
      </trkpt>
      <trkpt lat="44.78851" lon="4.64175">
        <ele>490.28</ele>
        <time>2020-03-08T11:14:45Z</time>
      </trkpt>
      <trkpt lat="44.78832" lon="4.64203">
        <ele>491.1</ele>
        <time>2020-03-08T11:15:11Z</time>
      </trkpt>
      <trkpt lat="44.7881" lon="4.64224">
        <ele>493.24</ele>
        <time>2020-03-08T11:15:38Z</time>
      </trkpt>
      <trkpt lat="44.78779" lon="4.64239">
        <ele>495.44</ele>
        <time>2020-03-08T11:16:11Z</time>
      </trkpt>
      <trkpt lat="44.78753" lon="4.64222">
        <ele>499.95</ele>
        <time>2020-03-08T11:16:40Z</time>
      </trkpt>
      <trkpt lat="44.78737" lon="4.64213">
        <ele>502.94</ele>
        <time>2020-03-08T11:17:14Z</time>
      </trkpt>
      <trkpt lat="44.78729" lon="4.64234">
        <ele>507.68</ele>
        <time>2020-03-08T11:17:35Z</time>
      </trkpt>
      <trkpt lat="44.78729" lon="4.64273">
        <ele>512.22</ele>
        <time>2020-03-08T11:18:08Z</time>
      </trkpt>
      <trkpt lat="44.78724" lon="4.64306">
        <ele>516.9</ele>
        <time>2020-03-08T11:18:48Z</time>
      </trkpt>
      <trkpt lat="44.78722" lon="4.64349">
        <ele>521.21</ele>
        <time>2020-03-08T11:19:29Z</time>
      </trkpt>
      <trkpt lat="44.78729" lon="4.64379">
        <ele>525.68</ele>
        <time>2020-03-08T11:20:07Z</time>
      </trkpt>
      <trkpt lat="44.78719" lon="4.64404">
        <ele>528.76</ele>
        <time>2020-03-08T11:20:36Z</time>
      </trkpt>
      <trkpt lat="44.78701" lon="4.64422">
        <ele>534.12</ele>
        <time>2020-03-08T11:21:12Z</time>
      </trkpt>
      <trkpt lat="44.78683" lon="4.64442">
        <ele>539.3</ele>
        <time>2020-03-08T11:21:48Z</time>
      </trkpt>
      <trkpt lat="44.78666" lon="4.64473">
        <ele>544.12</ele>
        <time>2020-03-08T11:22:25Z</time>
      </trkpt>
      <trkpt lat="44.78648" lon="4.64501">
        <ele>548.86</ele>
        <time>2020-03-08T11:23:03Z</time>
      </trkpt>
      <trkpt lat="44.78634" lon="4.64529">
        <ele>551.78</ele>
        <time>2020-03-08T11:23:38Z</time>
      </trkpt>
      <trkpt lat="44.78628" lon="4.6454">
        <ele>551.91</ele>
        <time>2020-03-08T11:25:48Z</time>
      </trkpt>
      <trkpt lat="44.78629" lon="4.64544">
        <ele>551.25</ele>
        <time>2020-03-08T11:27:35Z</time>
      </trkpt>
      <trkpt lat="44.78623" lon="4.64549">
        <ele>553.41</ele>
        <time>2020-03-08T11:29:45Z</time>
      </trkpt>
      <trkpt lat="44.78596" lon="4.64563">
        <ele>555.88</ele>
        <time>2020-03-08T11:30:20Z</time>
      </trkpt>
      <trkpt lat="44.7857" lon="4.64562">
        <ele>559.43</ele>
        <time>2020-03-08T11:30:55Z</time>
      </trkpt>
      <trkpt lat="44.78553" lon="4.64587">
        <ele>562.99</ele>
        <time>2020-03-08T11:31:28Z</time>
      </trkpt>
      <trkpt lat="44.78561" lon="4.6463">
        <ele>564.45</ele>
        <time>2020-03-08T11:32:02Z</time>
      </trkpt>
      <trkpt lat="44.78581" lon="4.6466">
        <ele>566.73</ele>
        <time>2020-03-08T11:32:34Z</time>
      </trkpt>
      <trkpt lat="44.78598" lon="4.64683">
        <ele>568.62</ele>
        <time>2020-03-08T11:33:02Z</time>
      </trkpt>
      <trkpt lat="44.7861" lon="4.64713">
        <ele>571.22</ele>
        <time>2020-03-08T11:33:33Z</time>
      </trkpt>
      <trkpt lat="44.78628" lon="4.64733">
        <ele>571.63</ele>
        <time>2020-03-08T11:34:05Z</time>
      </trkpt>
      <trkpt lat="44.78656" lon="4.64735">
        <ele>574.19</ele>
        <time>2020-03-08T11:34:38Z</time>
      </trkpt>
      <trkpt lat="44.78686" lon="4.64743">
        <ele>578.41</ele>
        <time>2020-03-08T11:35:13Z</time>
      </trkpt>
      <trkpt lat="44.78712" lon="4.64745">
        <ele>582.31</ele>
        <time>2020-03-08T11:35:51Z</time>
      </trkpt>
      <trkpt lat="44.78733" lon="4.64726">
        <ele>586.63</ele>
        <time>2020-03-08T11:36:29Z</time>
      </trkpt>
      <trkpt lat="44.78758" lon="4.64746">
        <ele>590.77</ele>
        <time>2020-03-08T11:37:09Z</time>
      </trkpt>
      <trkpt lat="44.78767" lon="4.64773">
        <ele>595.11</ele>
        <time>2020-03-08T11:37:45Z</time>
      </trkpt>
      <trkpt lat="44.78753" lon="4.64802">
        <ele>600.12</ele>
        <time>2020-03-08T11:38:23Z</time>
      </trkpt>
      <trkpt lat="44.7874" lon="4.64824">
        <ele>604.1</ele>
        <time>2020-03-08T11:39:08Z</time>
      </trkpt>
      <trkpt lat="44.78724" lon="4.64839">
        <ele>613.68</ele>
        <time>2020-03-08T11:39:46Z</time>
      </trkpt>
      <trkpt lat="44.7871" lon="4.64866">
        <ele>617.41</ele>
        <time>2020-03-08T11:40:24Z</time>
      </trkpt>
      <trkpt lat="44.78696" lon="4.64893">
        <ele>620.07</ele>
        <time>2020-03-08T11:41:06Z</time>
      </trkpt>
      <trkpt lat="44.78689" lon="4.64908">
        <ele>622.06</ele>
        <time>2020-03-08T11:43:10Z</time>
      </trkpt>
      <trkpt lat="44.78677" lon="4.64928">
        <ele>622.97</ele>
        <time>2020-03-08T11:43:34Z</time>
      </trkpt>
      <trkpt lat="44.78662" lon="4.64948">
        <ele>624.64</ele>
        <time>2020-03-08T11:44:02Z</time>
      </trkpt>
      <trkpt lat="44.78639" lon="4.64968">
        <ele>626.03</ele>
        <time>2020-03-08T11:44:35Z</time>
      </trkpt>
      <trkpt lat="44.78618" lon="4.64986">
        <ele>627.43</ele>
        <time>2020-03-08T11:45:05Z</time>
      </trkpt>
      <trkpt lat="44.78599" lon="4.65004">
        <ele>630.03</ele>
        <time>2020-03-08T11:45:32Z</time>
      </trkpt>
      <trkpt lat="44.78582" lon="4.65023">
        <ele>630.95</ele>
        <time>2020-03-08T11:45:59Z</time>
      </trkpt>
      <trkpt lat="44.78562" lon="4.65043">
        <ele>633.07</ele>
        <time>2020-03-08T11:46:33Z</time>
      </trkpt>
      <trkpt lat="44.78541" lon="4.65064">
        <ele>636.49</ele>
        <time>2020-03-08T11:47:09Z</time>
      </trkpt>
      <trkpt lat="44.78521" lon="4.65081">
        <ele>641.39</ele>
        <time>2020-03-08T11:47:50Z</time>
      </trkpt>
      <trkpt lat="44.78507" lon="4.65098">
        <ele>646.94</ele>
        <time>2020-03-08T11:48:31Z</time>
      </trkpt>
      <trkpt lat="44.7849" lon="4.65125">
        <ele>649.74</ele>
        <time>2020-03-08T11:49:08Z</time>
      </trkpt>
      <trkpt lat="44.78488" lon="4.65158">
        <ele>653.72</ele>
        <time>2020-03-08T11:49:47Z</time>
      </trkpt>
      <trkpt lat="44.78483" lon="4.6519">
        <ele>658.33</ele>
        <time>2020-03-08T11:50:23Z</time>
      </trkpt>
      <trkpt lat="44.7849" lon="4.65218">
        <ele>656.09</ele>
        <time>2020-03-08T11:51:14Z</time>
      </trkpt>
      <trkpt lat="44.78502" lon="4.65237">
        <ele>654.08</ele>
        <time>2020-03-08T11:51:35Z</time>
      </trkpt>
      <trkpt lat="44.78517" lon="4.65256">
        <ele>652.84</ele>
        <time>2020-03-08T11:51:55Z</time>
      </trkpt>
      <trkpt lat="44.78533" lon="4.65272">
        <ele>651.2</ele>
        <time>2020-03-08T11:52:13Z</time>
      </trkpt>
      <trkpt lat="44.78549" lon="4.6529">
        <ele>652.2</ele>
        <time>2020-03-08T11:52:35Z</time>
      </trkpt>
      <trkpt lat="44.78565" lon="4.65316">
        <ele>656.58</ele>
        <time>2020-03-08T11:52:57Z</time>
      </trkpt>
      <trkpt lat="44.78589" lon="4.6533">
        <ele>660.79</ele>
        <time>2020-03-08T11:53:22Z</time>
      </trkpt>
      <trkpt lat="44.78605" lon="4.65346">
        <ele>664</ele>
        <time>2020-03-08T11:53:53Z</time>
      </trkpt>
      <trkpt lat="44.7861" lon="4.65372">
        <ele>667.88</ele>
        <time>2020-03-08T11:54:25Z</time>
      </trkpt>
      <trkpt lat="44.78604" lon="4.65406">
        <ele>669.58</ele>
        <time>2020-03-08T11:54:56Z</time>
      </trkpt>
      <trkpt lat="44.78594" lon="4.65445">
        <ele>672.57</ele>
        <time>2020-03-08T11:55:28Z</time>
      </trkpt>
      <trkpt lat="44.78588" lon="4.6548">
        <ele>673.69</ele>
        <time>2020-03-08T11:55:53Z</time>
      </trkpt>
      <trkpt lat="44.78573" lon="4.65502">
        <ele>674.59</ele>
        <time>2020-03-08T11:56:13Z</time>
      </trkpt>
      <trkpt lat="44.78557" lon="4.65521">
        <ele>674.39</ele>
        <time>2020-03-08T11:56:32Z</time>
      </trkpt>
      <trkpt lat="44.7854" lon="4.65535">
        <ele>673.62</ele>
        <time>2020-03-08T11:56:51Z</time>
      </trkpt>
      <trkpt lat="44.78523" lon="4.6555">
        <ele>673.3</ele>
        <time>2020-03-08T11:57:11Z</time>
      </trkpt>
      <trkpt lat="44.78505" lon="4.65571">
        <ele>672.58</ele>
        <time>2020-03-08T11:57:33Z</time>
      </trkpt>
      <trkpt lat="44.78488" lon="4.65589">
        <ele>674.17</ele>
        <time>2020-03-08T11:57:57Z</time>
      </trkpt>
      <trkpt lat="44.78468" lon="4.65621">
        <ele>676.4</ele>
        <time>2020-03-08T11:58:28Z</time>
      </trkpt>
      <trkpt lat="44.78467" lon="4.65663">
        <ele>677.54</ele>
        <time>2020-03-08T11:58:55Z</time>
      </trkpt>
      <trkpt lat="44.78464" lon="4.65711">
        <ele>680.91</ele>
        <time>2020-03-08T11:59:30Z</time>
      </trkpt>
      <trkpt lat="44.78464" lon="4.65745">
        <ele>684.78</ele>
        <time>2020-03-08T12:00:02Z</time>
      </trkpt>
      <trkpt lat="44.78473" lon="4.65777">
        <ele>688.65</ele>
        <time>2020-03-08T12:00:35Z</time>
      </trkpt>
      <trkpt lat="44.78479" lon="4.65811">
        <ele>692.78</ele>
        <time>2020-03-08T12:01:11Z</time>
      </trkpt>
      <trkpt lat="44.78484" lon="4.65843">
        <ele>696.39</ele>
        <time>2020-03-08T12:01:41Z</time>
      </trkpt>
      <trkpt lat="44.78493" lon="4.65871">
        <ele>699.53</ele>
        <time>2020-03-08T12:02:10Z</time>
      </trkpt>
      <trkpt lat="44.78498" lon="4.65897">
        <ele>702.87</ele>
        <time>2020-03-08T12:02:38Z</time>
      </trkpt>
      <trkpt lat="44.78506" lon="4.6592">
        <ele>706.76</ele>
        <time>2020-03-08T12:03:10Z</time>
      </trkpt>
      <trkpt lat="44.78515" lon="4.65944">
        <ele>709.7</ele>
        <time>2020-03-08T12:03:34Z</time>
      </trkpt>
      <trkpt lat="44.78517" lon="4.65968">
        <ele>713.84</ele>
        <time>2020-03-08T12:08:02Z</time>
      </trkpt>
      <trkpt lat="44.78507" lon="4.65985">
        <ele>717.73</ele>
        <time>2020-03-08T12:08:26Z</time>
      </trkpt>
      <trkpt lat="44.78491" lon="4.65984">
        <ele>719.21</ele>
        <time>2020-03-08T12:08:46Z</time>
      </trkpt>
      <trkpt lat="44.78486" lon="4.65976">
        <ele>719.45</ele>
        <time>2020-03-08T12:10:40Z</time>
      </trkpt>
      <trkpt lat="44.78487" lon="4.65977">
        <ele>720.62</ele>
        <time>2020-03-08T12:14:03Z</time>
      </trkpt>
      <trkpt lat="44.78476" lon="4.65956">
        <ele>721.53</ele>
        <time>2020-03-08T12:14:22Z</time>
      </trkpt>
      <trkpt lat="44.78466" lon="4.65934">
        <ele>722.7</ele>
        <time>2020-03-08T12:14:37Z</time>
      </trkpt>
      <trkpt lat="44.78454" lon="4.65914">
        <ele>724.83</ele>
        <time>2020-03-08T12:14:59Z</time>
      </trkpt>
      <trkpt lat="44.78444" lon="4.65894">
        <ele>727.18</ele>
        <time>2020-03-08T12:15:20Z</time>
      </trkpt>
      <trkpt lat="44.78432" lon="4.65874">
        <ele>729.04</ele>
        <time>2020-03-08T12:15:40Z</time>
      </trkpt>
      <trkpt lat="44.7842" lon="4.65853">
        <ele>730.11</ele>
        <time>2020-03-08T12:15:59Z</time>
      </trkpt>
      <trkpt lat="44.7841" lon="4.65831">
        <ele>730.48</ele>
        <time>2020-03-08T12:16:17Z</time>
      </trkpt>
      <trkpt lat="44.784" lon="4.65808">
        <ele>731.78</ele>
        <time>2020-03-08T12:16:36Z</time>
      </trkpt>
      <trkpt lat="44.78392" lon="4.65785">
        <ele>732.66</ele>
        <time>2020-03-08T12:16:56Z</time>
      </trkpt>
      <trkpt lat="44.78384" lon="4.6576">
        <ele>734.98</ele>
        <time>2020-03-08T12:17:18Z</time>
      </trkpt>
      <trkpt lat="44.78374" lon="4.65739">
        <ele>736.94</ele>
        <time>2020-03-08T12:17:39Z</time>
      </trkpt>
      <trkpt lat="44.7836" lon="4.65721">
        <ele>738.85</ele>
        <time>2020-03-08T12:17:59Z</time>
      </trkpt>
      <trkpt lat="44.78349" lon="4.65699">
        <ele>739.53</ele>
        <time>2020-03-08T12:18:17Z</time>
      </trkpt>
      <trkpt lat="44.7834" lon="4.65676">
        <ele>739.72</ele>
        <time>2020-03-08T12:18:34Z</time>
      </trkpt>
      <trkpt lat="44.78334" lon="4.6565">
        <ele>740.67</ele>
        <time>2020-03-08T12:18:52Z</time>
      </trkpt>
      <trkpt lat="44.78328" lon="4.65626">
        <ele>740.73</ele>
        <time>2020-03-08T12:19:09Z</time>
      </trkpt>
      <trkpt lat="44.78323" lon="4.65601">
        <ele>741.66</ele>
        <time>2020-03-08T12:19:26Z</time>
      </trkpt>
      <trkpt lat="44.78321" lon="4.65575">
        <ele>742.95</ele>
        <time>2020-03-08T12:19:45Z</time>
      </trkpt>
      <trkpt lat="44.78322" lon="4.65549">
        <ele>746.17</ele>
        <time>2020-03-08T12:20:14Z</time>
      </trkpt>
      <trkpt lat="44.78324" lon="4.65523">
        <ele>751.16</ele>
        <time>2020-03-08T12:20:47Z</time>
      </trkpt>
      <trkpt lat="44.78326" lon="4.65498">
        <ele>757.08</ele>
        <time>2020-03-08T12:21:26Z</time>
      </trkpt>
      <trkpt lat="44.78332" lon="4.65474">
        <ele>761.8</ele>
        <time>2020-03-08T12:22:08Z</time>
      </trkpt>
      <trkpt lat="44.78346" lon="4.65458">
        <ele>766.53</ele>
        <time>2020-03-08T12:23:05Z</time>
      </trkpt>
      <trkpt lat="44.78358" lon="4.65438">
        <ele>770.22</ele>
        <time>2020-03-08T12:23:35Z</time>
      </trkpt>
      <trkpt lat="44.78355" lon="4.65415">
        <ele>775.42</ele>
        <time>2020-03-08T12:24:45Z</time>
      </trkpt>
      <trkpt lat="44.78342" lon="4.65399">
        <ele>778.85</ele>
        <time>2020-03-08T12:25:10Z</time>
      </trkpt>
      <trkpt lat="44.78328" lon="4.6539">
        <ele>781.73</ele>
        <time>2020-03-08T12:26:16Z</time>
      </trkpt>
      <trkpt lat="44.78318" lon="4.65372">
        <ele>783.25</ele>
        <time>2020-03-08T12:26:53Z</time>
      </trkpt>
      <trkpt lat="44.78305" lon="4.65354">
        <ele>782.63</ele>
        <time>2020-03-08T12:27:14Z</time>
      </trkpt>
      <trkpt lat="44.78291" lon="4.65338">
        <ele>782.78</ele>
        <time>2020-03-08T12:27:44Z</time>
      </trkpt>
      <trkpt lat="44.78277" lon="4.65319">
        <ele>782.27</ele>
        <time>2020-03-08T12:28:01Z</time>
      </trkpt>
      <trkpt lat="44.78262" lon="4.65303">
        <ele>782.41</ele>
        <time>2020-03-08T12:28:18Z</time>
      </trkpt>
      <trkpt lat="44.78252" lon="4.65282">
        <ele>781.84</ele>
        <time>2020-03-08T12:28:35Z</time>
      </trkpt>
      <trkpt lat="44.78243" lon="4.65259">
        <ele>782.83</ele>
        <time>2020-03-08T12:28:57Z</time>
      </trkpt>
      <trkpt lat="44.78232" lon="4.65239">
        <ele>784.23</ele>
        <time>2020-03-08T12:29:15Z</time>
      </trkpt>
      <trkpt lat="44.78219" lon="4.6522">
        <ele>786.66</ele>
        <time>2020-03-08T12:29:36Z</time>
      </trkpt>
      <trkpt lat="44.78206" lon="4.65201">
        <ele>789.48</ele>
        <time>2020-03-08T12:30:00Z</time>
      </trkpt>
      <trkpt lat="44.78192" lon="4.65183">
        <ele>791.07</ele>
        <time>2020-03-08T12:30:20Z</time>
      </trkpt>
      <trkpt lat="44.78179" lon="4.65166">
        <ele>793.14</ele>
        <time>2020-03-08T12:30:40Z</time>
      </trkpt>
      <trkpt lat="44.78164" lon="4.6515">
        <ele>794.24</ele>
        <time>2020-03-08T12:31:00Z</time>
      </trkpt>
      <trkpt lat="44.7815" lon="4.65134">
        <ele>794.61</ele>
        <time>2020-03-08T12:31:18Z</time>
      </trkpt>
      <trkpt lat="44.7814" lon="4.65112">
        <ele>794.64</ele>
        <time>2020-03-08T12:31:36Z</time>
      </trkpt>
      <trkpt lat="44.7813" lon="4.65091">
        <ele>794.74</ele>
        <time>2020-03-08T12:31:53Z</time>
      </trkpt>
      <trkpt lat="44.78118" lon="4.65069">
        <ele>794.84</ele>
        <time>2020-03-08T12:32:12Z</time>
      </trkpt>
      <trkpt lat="44.78108" lon="4.65046">
        <ele>794.77</ele>
        <time>2020-03-08T12:32:30Z</time>
      </trkpt>
      <trkpt lat="44.781" lon="4.65022">
        <ele>795.72</ele>
        <time>2020-03-08T12:32:55Z</time>
      </trkpt>
      <trkpt lat="44.78088" lon="4.64999">
        <ele>795.96</ele>
        <time>2020-03-08T12:33:15Z</time>
      </trkpt>
      <trkpt lat="44.78075" lon="4.64979">
        <ele>796.56</ele>
        <time>2020-03-08T12:33:33Z</time>
      </trkpt>
      <trkpt lat="44.78061" lon="4.6496">
        <ele>797.32</ele>
        <time>2020-03-08T12:33:56Z</time>
      </trkpt>
      <trkpt lat="44.78047" lon="4.64942">
        <ele>798.11</ele>
        <time>2020-03-08T12:34:17Z</time>
      </trkpt>
      <trkpt lat="44.78032" lon="4.64926">
        <ele>799.15</ele>
        <time>2020-03-08T12:34:48Z</time>
      </trkpt>
      <trkpt lat="44.78017" lon="4.64914">
        <ele>800.75</ele>
        <time>2020-03-08T12:35:06Z</time>
      </trkpt>
      <trkpt lat="44.78001" lon="4.64901">
        <ele>801.85</ele>
        <time>2020-03-08T12:35:26Z</time>
      </trkpt>
      <trkpt lat="44.77987" lon="4.64884">
        <ele>804.72</ele>
        <time>2020-03-08T12:35:48Z</time>
      </trkpt>
      <trkpt lat="44.77971" lon="4.64872">
        <ele>805.96</ele>
        <time>2020-03-08T12:36:08Z</time>
      </trkpt>
      <trkpt lat="44.77953" lon="4.64862">
        <ele>807.3</ele>
        <time>2020-03-08T12:36:27Z</time>
      </trkpt>
      <trkpt lat="44.77936" lon="4.64851">
        <ele>808.39</ele>
        <time>2020-03-08T12:36:45Z</time>
      </trkpt>
      <trkpt lat="44.77922" lon="4.64839">
        <ele>808.17</ele>
        <time>2020-03-08T12:38:04Z</time>
      </trkpt>
      <trkpt lat="44.77909" lon="4.64822">
        <ele>808.33</ele>
        <time>2020-03-08T12:38:19Z</time>
      </trkpt>
      <trkpt lat="44.77897" lon="4.648">
        <ele>808.23</ele>
        <time>2020-03-08T12:38:36Z</time>
      </trkpt>
      <trkpt lat="44.77886" lon="4.64779">
        <ele>807.09</ele>
        <time>2020-03-08T12:38:50Z</time>
      </trkpt>
      <trkpt lat="44.77879" lon="4.64755">
        <ele>806.24</ele>
        <time>2020-03-08T12:39:04Z</time>
      </trkpt>
      <trkpt lat="44.77873" lon="4.6473">
        <ele>804.68</ele>
        <time>2020-03-08T12:39:18Z</time>
      </trkpt>
      <trkpt lat="44.77864" lon="4.64708">
        <ele>804.46</ele>
        <time>2020-03-08T12:39:32Z</time>
      </trkpt>
      <trkpt lat="44.77854" lon="4.64684">
        <ele>804.83</ele>
        <time>2020-03-08T12:39:46Z</time>
      </trkpt>
      <trkpt lat="44.77847" lon="4.6466">
        <ele>805.02</ele>
        <time>2020-03-08T12:40:01Z</time>
      </trkpt>
      <trkpt lat="44.77839" lon="4.64638">
        <ele>803.98</ele>
        <time>2020-03-08T12:40:19Z</time>
      </trkpt>
      <trkpt lat="44.7783" lon="4.64615">
        <ele>803.82</ele>
        <time>2020-03-08T12:40:34Z</time>
      </trkpt>
      <trkpt lat="44.77821" lon="4.64591">
        <ele>803.33</ele>
        <time>2020-03-08T12:40:50Z</time>
      </trkpt>
      <trkpt lat="44.77814" lon="4.64568">
        <ele>803.4</ele>
        <time>2020-03-08T12:41:05Z</time>
      </trkpt>
      <trkpt lat="44.77823" lon="4.64546">
        <ele>804.78</ele>
        <time>2020-03-08T12:41:23Z</time>
      </trkpt>
      <trkpt lat="44.77838" lon="4.64527">
        <ele>805.97</ele>
        <time>2020-03-08T12:41:42Z</time>
      </trkpt>
      <trkpt lat="44.77855" lon="4.64515">
        <ele>806.66</ele>
        <time>2020-03-08T12:41:58Z</time>
      </trkpt>
      <trkpt lat="44.77872" lon="4.64505">
        <ele>805.61</ele>
        <time>2020-03-08T12:42:13Z</time>
      </trkpt>
      <trkpt lat="44.77889" lon="4.64496">
        <ele>803.96</ele>
        <time>2020-03-08T12:42:30Z</time>
      </trkpt>
      <trkpt lat="44.77901" lon="4.64485">
        <ele>801.95</ele>
        <time>2020-03-08T12:43:00Z</time>
      </trkpt>
      <trkpt lat="44.77902" lon="4.64487">
        <ele>801.41</ele>
        <time>2020-03-08T12:44:13Z</time>
      </trkpt>
      <trkpt lat="44.77902" lon="4.64491">
        <ele>801.76</ele>
        <time>2020-03-08T12:45:32Z</time>
      </trkpt>
      <trkpt lat="44.77909" lon="4.64498">
        <ele>802.03</ele>
        <time>2020-03-08T13:04:39Z</time>
      </trkpt>
      <trkpt lat="44.77905" lon="4.64495">
        <ele>802</ele>
        <time>2020-03-08T13:05:29Z</time>
      </trkpt>
      <trkpt lat="44.77904" lon="4.64501">
        <ele>802.37</ele>
        <time>2020-03-08T13:11:17Z</time>
      </trkpt>
      <trkpt lat="44.77903" lon="4.64497">
        <ele>803.03</ele>
        <time>2020-03-08T13:15:00Z</time>
      </trkpt>
      <trkpt lat="44.7789" lon="4.64496">
        <ele>806.98</ele>
        <time>2020-03-08T13:40:57Z</time>
      </trkpt>
      <trkpt lat="44.77873" lon="4.64497">
        <ele>807.77</ele>
        <time>2020-03-08T13:41:16Z</time>
      </trkpt>
      <trkpt lat="44.77855" lon="4.64493">
        <ele>808.21</ele>
        <time>2020-03-08T13:41:33Z</time>
      </trkpt>
      <trkpt lat="44.77837" lon="4.6449">
        <ele>807.52</ele>
        <time>2020-03-08T13:41:51Z</time>
      </trkpt>
      <trkpt lat="44.77818" lon="4.64491">
        <ele>806.3</ele>
        <time>2020-03-08T13:42:10Z</time>
      </trkpt>
      <trkpt lat="44.77807" lon="4.64506">
        <ele>805.65</ele>
        <time>2020-03-08T13:42:28Z</time>
      </trkpt>
      <trkpt lat="44.77807" lon="4.6453">
        <ele>804.99</ele>
        <time>2020-03-08T13:42:45Z</time>
      </trkpt>
      <trkpt lat="44.77796" lon="4.64525">
        <ele>803.61</ele>
        <time>2020-03-08T13:43:09Z</time>
      </trkpt>
      <trkpt lat="44.77786" lon="4.64503">
        <ele>803.15</ele>
        <time>2020-03-08T13:43:28Z</time>
      </trkpt>
      <trkpt lat="44.77777" lon="4.6448">
        <ele>802.04</ele>
        <time>2020-03-08T13:43:47Z</time>
      </trkpt>
      <trkpt lat="44.77767" lon="4.64457">
        <ele>802.43</ele>
        <time>2020-03-08T13:44:10Z</time>
      </trkpt>
      <trkpt lat="44.77759" lon="4.64434">
        <ele>801.69</ele>
        <time>2020-03-08T13:44:28Z</time>
      </trkpt>
      <trkpt lat="44.7775" lon="4.64411">
        <ele>800.93</ele>
        <time>2020-03-08T13:44:46Z</time>
      </trkpt>
      <trkpt lat="44.77739" lon="4.64389">
        <ele>800.27</ele>
        <time>2020-03-08T13:45:04Z</time>
      </trkpt>
      <trkpt lat="44.77721" lon="4.64392">
        <ele>798.93</ele>
        <time>2020-03-08T13:45:24Z</time>
      </trkpt>
      <trkpt lat="44.77704" lon="4.64385">
        <ele>797.97</ele>
        <time>2020-03-08T13:45:43Z</time>
      </trkpt>
      <trkpt lat="44.77689" lon="4.64368">
        <ele>797.04</ele>
        <time>2020-03-08T13:46:01Z</time>
      </trkpt>
      <trkpt lat="44.77675" lon="4.64351">
        <ele>796.45</ele>
        <time>2020-03-08T13:46:19Z</time>
      </trkpt>
      <trkpt lat="44.77661" lon="4.64335">
        <ele>794.99</ele>
        <time>2020-03-08T13:46:53Z</time>
      </trkpt>
      <trkpt lat="44.77647" lon="4.64319">
        <ele>794.83</ele>
        <time>2020-03-08T13:47:09Z</time>
      </trkpt>
      <trkpt lat="44.77633" lon="4.64302">
        <ele>793.9</ele>
        <time>2020-03-08T13:47:25Z</time>
      </trkpt>
      <trkpt lat="44.77617" lon="4.64288">
        <ele>792.31</ele>
        <time>2020-03-08T13:47:41Z</time>
      </trkpt>
      <trkpt lat="44.77601" lon="4.64273">
        <ele>790.95</ele>
        <time>2020-03-08T13:47:58Z</time>
      </trkpt>
      <trkpt lat="44.77585" lon="4.64255">
        <ele>789.52</ele>
        <time>2020-03-08T13:48:15Z</time>
      </trkpt>
      <trkpt lat="44.7757" lon="4.64239">
        <ele>787.78</ele>
        <time>2020-03-08T13:48:30Z</time>
      </trkpt>
      <trkpt lat="44.77555" lon="4.6422">
        <ele>786.48</ele>
        <time>2020-03-08T13:48:46Z</time>
      </trkpt>
      <trkpt lat="44.77543" lon="4.64199">
        <ele>785.57</ele>
        <time>2020-03-08T13:49:03Z</time>
      </trkpt>
      <trkpt lat="44.7753" lon="4.64178">
        <ele>784.06</ele>
        <time>2020-03-08T13:49:20Z</time>
      </trkpt>
      <trkpt lat="44.77517" lon="4.64158">
        <ele>782.48</ele>
        <time>2020-03-08T13:49:35Z</time>
      </trkpt>
      <trkpt lat="44.77505" lon="4.6414">
        <ele>781.49</ele>
        <time>2020-03-08T13:49:50Z</time>
      </trkpt>
      <trkpt lat="44.77491" lon="4.64121">
        <ele>780.45</ele>
        <time>2020-03-08T13:50:06Z</time>
      </trkpt>
      <trkpt lat="44.77476" lon="4.64104">
        <ele>779.46</ele>
        <time>2020-03-08T13:50:23Z</time>
      </trkpt>
      <trkpt lat="44.77459" lon="4.64091">
        <ele>777.81</ele>
        <time>2020-03-08T13:50:40Z</time>
      </trkpt>
      <trkpt lat="44.77443" lon="4.64077">
        <ele>776.37</ele>
        <time>2020-03-08T13:50:58Z</time>
      </trkpt>
      <trkpt lat="44.77432" lon="4.64065">
        <ele>776.11</ele>
        <time>2020-03-08T13:52:06Z</time>
      </trkpt>
      <trkpt lat="44.77438" lon="4.64051">
        <ele>775.33</ele>
        <time>2020-03-08T13:54:42Z</time>
      </trkpt>
      <trkpt lat="44.77454" lon="4.64056">
        <ele>775.48</ele>
        <time>2020-03-08T13:55:23Z</time>
      </trkpt>
      <trkpt lat="44.77472" lon="4.64064">
        <ele>773.46</ele>
        <time>2020-03-08T13:55:56Z</time>
      </trkpt>
      <trkpt lat="44.77489" lon="4.64076">
        <ele>772.81</ele>
        <time>2020-03-08T13:56:19Z</time>
      </trkpt>
      <trkpt lat="44.77505" lon="4.64087">
        <ele>772.13</ele>
        <time>2020-03-08T13:56:37Z</time>
      </trkpt>
      <trkpt lat="44.77521" lon="4.64098">
        <ele>771.82</ele>
        <time>2020-03-08T13:56:58Z</time>
      </trkpt>
      <trkpt lat="44.77525" lon="4.64084">
        <ele>769.07</ele>
        <time>2020-03-08T13:57:21Z</time>
      </trkpt>
      <trkpt lat="44.77516" lon="4.64062">
        <ele>765.04</ele>
        <time>2020-03-08T13:57:43Z</time>
      </trkpt>
      <trkpt lat="44.77508" lon="4.64039">
        <ele>763.19</ele>
        <time>2020-03-08T13:58:03Z</time>
      </trkpt>
      <trkpt lat="44.77501" lon="4.64014">
        <ele>761.26</ele>
        <time>2020-03-08T13:58:23Z</time>
      </trkpt>
      <trkpt lat="44.77501" lon="4.63988">
        <ele>758.92</ele>
        <time>2020-03-08T13:58:42Z</time>
      </trkpt>
      <trkpt lat="44.77502" lon="4.63961">
        <ele>755.25</ele>
        <time>2020-03-08T13:59:05Z</time>
      </trkpt>
      <trkpt lat="44.77504" lon="4.63933">
        <ele>752.21</ele>
        <time>2020-03-08T13:59:27Z</time>
      </trkpt>
      <trkpt lat="44.77508" lon="4.639">
        <ele>748.87</ele>
        <time>2020-03-08T13:59:52Z</time>
      </trkpt>
      <trkpt lat="44.77514" lon="4.63868">
        <ele>744.63</ele>
        <time>2020-03-08T14:00:16Z</time>
      </trkpt>
      <trkpt lat="44.77524" lon="4.63838">
        <ele>740.74</ele>
        <time>2020-03-08T14:00:39Z</time>
      </trkpt>
      <trkpt lat="44.77533" lon="4.63806">
        <ele>738.4</ele>
        <time>2020-03-08T14:01:01Z</time>
      </trkpt>
      <trkpt lat="44.77545" lon="4.63778">
        <ele>735.36</ele>
        <time>2020-03-08T14:01:21Z</time>
      </trkpt>
      <trkpt lat="44.77555" lon="4.63751">
        <ele>733.07</ele>
        <time>2020-03-08T14:01:38Z</time>
      </trkpt>
      <trkpt lat="44.7757" lon="4.6373">
        <ele>730.15</ele>
        <time>2020-03-08T14:02:03Z</time>
      </trkpt>
      <trkpt lat="44.77586" lon="4.63709">
        <ele>726.69</ele>
        <time>2020-03-08T14:02:29Z</time>
      </trkpt>
      <trkpt lat="44.77597" lon="4.63677">
        <ele>724.26</ele>
        <time>2020-03-08T14:02:55Z</time>
      </trkpt>
      <trkpt lat="44.77593" lon="4.63642">
        <ele>719.47</ele>
        <time>2020-03-08T14:03:29Z</time>
      </trkpt>
      <trkpt lat="44.77573" lon="4.63626">
        <ele>714</ele>
        <time>2020-03-08T14:04:01Z</time>
      </trkpt>
      <trkpt lat="44.77552" lon="4.63616">
        <ele>707.71</ele>
        <time>2020-03-08T14:04:37Z</time>
      </trkpt>
      <trkpt lat="44.77527" lon="4.63612">
        <ele>701.68</ele>
        <time>2020-03-08T14:05:09Z</time>
      </trkpt>
      <trkpt lat="44.77501" lon="4.63604">
        <ele>694.02</ele>
        <time>2020-03-08T14:05:48Z</time>
      </trkpt>
      <trkpt lat="44.77482" lon="4.63592">
        <ele>687.27</ele>
        <time>2020-03-08T14:06:24Z</time>
      </trkpt>
      <trkpt lat="44.77459" lon="4.6358">
        <ele>685.42</ele>
        <time>2020-03-08T14:07:00Z</time>
      </trkpt>
      <trkpt lat="44.77431" lon="4.63558">
        <ele>677.76</ele>
        <time>2020-03-08T14:07:41Z</time>
      </trkpt>
      <trkpt lat="44.77423" lon="4.63519">
        <ele>670.89</ele>
        <time>2020-03-08T14:08:16Z</time>
      </trkpt>
      <trkpt lat="44.77432" lon="4.63533">
        <ele>666.04</ele>
        <time>2020-03-08T14:08:51Z</time>
      </trkpt>
      <trkpt lat="44.77456" lon="4.63533">
        <ele>662.76</ele>
        <time>2020-03-08T14:09:22Z</time>
      </trkpt>
      <trkpt lat="44.77481" lon="4.63526">
        <ele>660.53</ele>
        <time>2020-03-08T14:09:50Z</time>
      </trkpt>
      <trkpt lat="44.77463" lon="4.63506">
        <ele>654.54</ele>
        <time>2020-03-08T14:10:34Z</time>
      </trkpt>
      <trkpt lat="44.77454" lon="4.63474">
        <ele>652.32</ele>
        <time>2020-03-08T14:11:04Z</time>
      </trkpt>
      <trkpt lat="44.77461" lon="4.63438">
        <ele>651.35</ele>
        <time>2020-03-08T14:11:31Z</time>
      </trkpt>
      <trkpt lat="44.7747" lon="4.6341">
        <ele>646.51</ele>
        <time>2020-03-08T14:12:02Z</time>
      </trkpt>
      <trkpt lat="44.77479" lon="4.6338">
        <ele>642.83</ele>
        <time>2020-03-08T14:12:33Z</time>
      </trkpt>
      <trkpt lat="44.77489" lon="4.63347">
        <ele>642.22</ele>
        <time>2020-03-08T14:13:00Z</time>
      </trkpt>
      <trkpt lat="44.775" lon="4.63317">
        <ele>640.18</ele>
        <time>2020-03-08T14:13:25Z</time>
      </trkpt>
      <trkpt lat="44.77511" lon="4.63289">
        <ele>638.14</ele>
        <time>2020-03-08T14:13:51Z</time>
      </trkpt>
      <trkpt lat="44.77523" lon="4.63262">
        <ele>636.54</ele>
        <time>2020-03-08T14:14:15Z</time>
      </trkpt>
      <trkpt lat="44.77533" lon="4.63234">
        <ele>636.75</ele>
        <time>2020-03-08T14:14:59Z</time>
      </trkpt>
      <trkpt lat="44.77543" lon="4.63215">
        <ele>636.63</ele>
        <time>2020-03-08T14:18:41Z</time>
      </trkpt>
      <trkpt lat="44.77556" lon="4.63194">
        <ele>634.58</ele>
        <time>2020-03-08T14:19:00Z</time>
      </trkpt>
      <trkpt lat="44.77568" lon="4.63172">
        <ele>632.69</ele>
        <time>2020-03-08T14:19:23Z</time>
      </trkpt>
      <trkpt lat="44.77568" lon="4.63147">
        <ele>630</ele>
        <time>2020-03-08T14:19:46Z</time>
      </trkpt>
      <trkpt lat="44.77546" lon="4.63129">
        <ele>626.51</ele>
        <time>2020-03-08T14:20:26Z</time>
      </trkpt>
      <trkpt lat="44.77543" lon="4.63095">
        <ele>623.53</ele>
        <time>2020-03-08T14:20:54Z</time>
      </trkpt>
      <trkpt lat="44.77543" lon="4.63064">
        <ele>618.38</ele>
        <time>2020-03-08T14:21:23Z</time>
      </trkpt>
      <trkpt lat="44.77554" lon="4.63035">
        <ele>611.47</ele>
        <time>2020-03-08T14:21:54Z</time>
      </trkpt>
      <trkpt lat="44.77564" lon="4.63008">
        <ele>604.09</ele>
        <time>2020-03-08T14:22:30Z</time>
      </trkpt>
      <trkpt lat="44.77579" lon="4.62977">
        <ele>598.74</ele>
        <time>2020-03-08T14:22:59Z</time>
      </trkpt>
      <trkpt lat="44.77601" lon="4.62958">
        <ele>592.5</ele>
        <time>2020-03-08T14:23:29Z</time>
      </trkpt>
      <trkpt lat="44.77626" lon="4.62937">
        <ele>588.57</ele>
        <time>2020-03-08T14:24:02Z</time>
      </trkpt>
      <trkpt lat="44.77653" lon="4.62916">
        <ele>585.41</ele>
        <time>2020-03-08T14:24:33Z</time>
      </trkpt>
      <trkpt lat="44.77679" lon="4.62889">
        <ele>580.66</ele>
        <time>2020-03-08T14:25:07Z</time>
      </trkpt>
      <trkpt lat="44.77701" lon="4.62866">
        <ele>575.97</ele>
        <time>2020-03-08T14:25:31Z</time>
      </trkpt>
      <trkpt lat="44.77722" lon="4.62838">
        <ele>570.86</ele>
        <time>2020-03-08T14:26:01Z</time>
      </trkpt>
      <trkpt lat="44.7774" lon="4.62809">
        <ele>565.88</ele>
        <time>2020-03-08T14:26:29Z</time>
      </trkpt>
      <trkpt lat="44.77754" lon="4.6278">
        <ele>561.24</ele>
        <time>2020-03-08T14:26:59Z</time>
      </trkpt>
      <trkpt lat="44.77764" lon="4.62743">
        <ele>556.04</ele>
        <time>2020-03-08T14:27:33Z</time>
      </trkpt>
      <trkpt lat="44.77772" lon="4.62707">
        <ele>551.42</ele>
        <time>2020-03-08T14:28:04Z</time>
      </trkpt>
      <trkpt lat="44.77791" lon="4.62673">
        <ele>545.57</ele>
        <time>2020-03-08T14:28:33Z</time>
      </trkpt>
      <trkpt lat="44.77819" lon="4.62647">
        <ele>538.18</ele>
        <time>2020-03-08T14:29:03Z</time>
      </trkpt>
      <trkpt lat="44.77858" lon="4.62631">
        <ele>534.64</ele>
        <time>2020-03-08T14:29:29Z</time>
      </trkpt>
      <trkpt lat="44.77888" lon="4.6261">
        <ele>531.57</ele>
        <time>2020-03-08T14:29:56Z</time>
      </trkpt>
      <trkpt lat="44.77905" lon="4.6259">
        <ele>528.01</ele>
        <time>2020-03-08T14:30:33Z</time>
      </trkpt>
      <trkpt lat="44.77921" lon="4.62571">
        <ele>521.18</ele>
        <time>2020-03-08T14:31:05Z</time>
      </trkpt>
      <trkpt lat="44.7793" lon="4.6255">
        <ele>514.53</ele>
        <time>2020-03-08T14:31:34Z</time>
      </trkpt>
      <trkpt lat="44.77942" lon="4.62526">
        <ele>507.72</ele>
        <time>2020-03-08T14:32:05Z</time>
      </trkpt>
      <trkpt lat="44.77961" lon="4.62511">
        <ele>500.05</ele>
        <time>2020-03-08T14:32:35Z</time>
      </trkpt>
      <trkpt lat="44.77976" lon="4.62494">
        <ele>493.93</ele>
        <time>2020-03-08T14:33:06Z</time>
      </trkpt>
      <trkpt lat="44.77995" lon="4.62479">
        <ele>488.35</ele>
        <time>2020-03-08T14:33:41Z</time>
      </trkpt>
      <trkpt lat="44.78021" lon="4.62468">
        <ele>483.59</ele>
        <time>2020-03-08T14:34:08Z</time>
      </trkpt>
      <trkpt lat="44.78047" lon="4.62464">
        <ele>480.07</ele>
        <time>2020-03-08T14:34:38Z</time>
      </trkpt>
      <trkpt lat="44.78074" lon="4.62468">
        <ele>474.6</ele>
        <time>2020-03-08T14:35:16Z</time>
      </trkpt>
      <trkpt lat="44.78099" lon="4.62482">
        <ele>469.9</ele>
        <time>2020-03-08T14:35:51Z</time>
      </trkpt>
      <trkpt lat="44.78126" lon="4.62482">
        <ele>466.52</ele>
        <time>2020-03-08T14:36:26Z</time>
      </trkpt>
      <trkpt lat="44.78156" lon="4.62468">
        <ele>461.3</ele>
        <time>2020-03-08T14:36:53Z</time>
      </trkpt>
      <trkpt lat="44.78167" lon="4.62444">
        <ele>459.49</ele>
        <time>2020-03-08T14:38:27Z</time>
      </trkpt>
      <trkpt lat="44.78174" lon="4.62425">
        <ele>457.3</ele>
        <time>2020-03-08T14:43:34Z</time>
      </trkpt>
      <trkpt lat="44.78188" lon="4.62406">
        <ele>451.13</ele>
        <time>2020-03-08T14:44:04Z</time>
      </trkpt>
      <trkpt lat="44.7821" lon="4.62399">
        <ele>445.45</ele>
        <time>2020-03-08T14:44:35Z</time>
      </trkpt>
      <trkpt lat="44.78234" lon="4.62384">
        <ele>437.7</ele>
        <time>2020-03-08T14:45:13Z</time>
      </trkpt>
      <trkpt lat="44.7824" lon="4.62356">
        <ele>430.02</ele>
        <time>2020-03-08T14:45:46Z</time>
      </trkpt>
      <trkpt lat="44.78236" lon="4.62317">
        <ele>421.56</ele>
        <time>2020-03-08T14:46:20Z</time>
      </trkpt>
      <trkpt lat="44.78242" lon="4.62287">
        <ele>415.8</ele>
        <time>2020-03-08T14:46:51Z</time>
      </trkpt>
      <trkpt lat="44.78267" lon="4.62279">
        <ele>408.98</ele>
        <time>2020-03-08T14:47:22Z</time>
      </trkpt>
      <trkpt lat="44.78289" lon="4.62283">
        <ele>405.62</ele>
        <time>2020-03-08T14:48:09Z</time>
      </trkpt>
      <trkpt lat="44.78311" lon="4.62277">
        <ele>400.9</ele>
        <time>2020-03-08T14:48:38Z</time>
      </trkpt>
      <trkpt lat="44.78327" lon="4.62258">
        <ele>398.1</ele>
        <time>2020-03-08T14:48:57Z</time>
      </trkpt>
      <trkpt lat="44.78345" lon="4.62243">
        <ele>397.12</ele>
        <time>2020-03-08T14:49:18Z</time>
      </trkpt>
      <trkpt lat="44.78358" lon="4.62246">
        <ele>398.02</ele>
        <time>2020-03-08T14:49:45Z</time>
      </trkpt>
      <trkpt lat="44.78356" lon="4.62246">
        <ele>398.1</ele>
        <time>2020-03-08T14:50:42Z</time>
      </trkpt>
      <trkpt lat="44.78368" lon="4.62231">
        <ele>394.81</ele>
        <time>2020-03-08T14:51:24Z</time>
      </trkpt>
      <trkpt lat="44.78374" lon="4.62225">
        <ele>393.96</ele>
        <time>2020-03-08T14:51:58Z</time>
      </trkpt>
      <trkpt lat="44.7838" lon="4.6224">
        <ele>393.9</ele>
        <time>2020-03-08T14:54:35Z</time>
      </trkpt>
      <trkpt lat="44.78397" lon="4.62261">
        <ele>394.13</ele>
        <time>2020-03-08T14:55:00Z</time>
      </trkpt>
      <trkpt lat="44.78406" lon="4.62256">
        <ele>394.55</ele>
        <time>2020-03-08T14:55:52Z</time>
      </trkpt>
      <trkpt lat="44.78412" lon="4.62224">
        <ele>396.89</ele>
        <time>2020-03-08T14:56:23Z</time>
      </trkpt>
      <trkpt lat="44.78431" lon="4.62219">
        <ele>395.71</ele>
        <time>2020-03-08T14:56:40Z</time>
      </trkpt>
      <trkpt lat="44.78449" lon="4.62209">
        <ele>394.73</ele>
        <time>2020-03-08T14:56:56Z</time>
      </trkpt>
      <trkpt lat="44.78467" lon="4.62201">
        <ele>392.03</ele>
        <time>2020-03-08T14:57:13Z</time>
      </trkpt>
      <trkpt lat="44.78484" lon="4.62187">
        <ele>389.63</ele>
        <time>2020-03-08T14:57:28Z</time>
      </trkpt>
      <trkpt lat="44.78505" lon="4.62184">
        <ele>388.42</ele>
        <time>2020-03-08T14:57:46Z</time>
      </trkpt>
      <trkpt lat="44.78525" lon="4.6219">
        <ele>388.47</ele>
        <time>2020-03-08T14:58:09Z</time>
      </trkpt>
      <trkpt lat="44.78544" lon="4.62203">
        <ele>388.91</ele>
        <time>2020-03-08T14:58:31Z</time>
      </trkpt>
      <trkpt lat="44.78561" lon="4.62217">
        <ele>388.49</ele>
        <time>2020-03-08T14:58:49Z</time>
      </trkpt>
      <trkpt lat="44.78575" lon="4.62236">
        <ele>388.7</ele>
        <time>2020-03-08T14:59:06Z</time>
      </trkpt>
      <trkpt lat="44.78589" lon="4.62244">
        <ele>386.91</ele>
        <time>2020-03-08T14:59:25Z</time>
      </trkpt>
      <trkpt lat="44.78604" lon="4.62229">
        <ele>383.82</ele>
        <time>2020-03-08T14:59:43Z</time>
      </trkpt>
      <trkpt lat="44.7861" lon="4.62224">
        <ele>383.64</ele>
        <time>2020-03-08T15:01:06Z</time>
      </trkpt>
      <trkpt lat="44.78619" lon="4.62202">
        <ele>386.95</ele>
        <time>2020-03-08T15:01:50Z</time>
      </trkpt>
      <trkpt lat="44.78626" lon="4.62181">
        <ele>391.19</ele>
        <time>2020-03-08T15:02:25Z</time>
      </trkpt>
      <trkpt lat="44.78639" lon="4.62152">
        <ele>397.37</ele>
        <time>2020-03-08T15:02:55Z</time>
      </trkpt>
      <trkpt lat="44.78646" lon="4.62152">
        <ele>401.62</ele>
        <time>2020-03-08T15:03:40Z</time>
      </trkpt>
      <trkpt lat="44.78658" lon="4.6214">
        <ele>406.34</ele>
        <time>2020-03-08T15:04:13Z</time>
      </trkpt>
      <trkpt lat="44.78653" lon="4.62123">
        <ele>408.36</ele>
        <time>2020-03-08T15:05:47Z</time>
      </trkpt>
      <trkpt lat="44.78659" lon="4.62137">
        <ele>408.9</ele>
        <time>2020-03-08T15:07:09Z</time>
      </trkpt>
      <trkpt lat="44.78673" lon="4.62156">
        <ele>411.43</ele>
        <time>2020-03-08T15:07:32Z</time>
      </trkpt>
      <trkpt lat="44.78686" lon="4.62175">
        <ele>414.98</ele>
        <time>2020-03-08T15:07:56Z</time>
      </trkpt>
      <trkpt lat="44.78701" lon="4.62197">
        <ele>418.91</ele>
        <time>2020-03-08T15:08:20Z</time>
      </trkpt>
      <trkpt lat="44.78714" lon="4.62209">
        <ele>419.42</ele>
        <time>2020-03-08T15:09:07Z</time>
      </trkpt>
      <trkpt lat="44.78726" lon="4.6223">
        <ele>420.48</ele>
        <time>2020-03-08T15:09:25Z</time>
      </trkpt>
      <trkpt lat="44.78739" lon="4.62249">
        <ele>420.59</ele>
        <time>2020-03-08T15:09:44Z</time>
      </trkpt>
      <trkpt lat="44.78753" lon="4.62269">
        <ele>421.53</ele>
        <time>2020-03-08T15:10:05Z</time>
      </trkpt>
      <trkpt lat="44.78768" lon="4.62288">
        <ele>421.78</ele>
        <time>2020-03-08T15:10:23Z</time>
      </trkpt>
      <trkpt lat="44.78783" lon="4.62306">
        <ele>422.69</ele>
        <time>2020-03-08T15:10:41Z</time>
      </trkpt>
      <trkpt lat="44.78801" lon="4.62313">
        <ele>423.23</ele>
        <time>2020-03-08T15:11:07Z</time>
      </trkpt>
      <trkpt lat="44.78819" lon="4.6231">
        <ele>422.93</ele>
        <time>2020-03-08T15:11:22Z</time>
      </trkpt>
      <trkpt lat="44.78835" lon="4.62295">
        <ele>423.32</ele>
        <time>2020-03-08T15:11:37Z</time>
      </trkpt>
      <trkpt lat="44.78844" lon="4.62273">
        <ele>422.71</ele>
        <time>2020-03-08T15:11:52Z</time>
      </trkpt>
      <trkpt lat="44.78843" lon="4.62246">
        <ele>421.48</ele>
        <time>2020-03-08T15:12:08Z</time>
      </trkpt>
      <trkpt lat="44.78843" lon="4.62227">
        <ele>420.32</ele>
        <time>2020-03-08T15:12:25Z</time>
      </trkpt>
      <trkpt lat="44.78855" lon="4.62249">
        <ele>418.61</ele>
        <time>2020-03-08T15:12:49Z</time>
      </trkpt>
      <trkpt lat="44.78871" lon="4.62275">
        <ele>417.86</ele>
        <time>2020-03-08T15:13:13Z</time>
      </trkpt>
      <trkpt lat="44.7889" lon="4.62301">
        <ele>417.46</ele>
        <time>2020-03-08T15:13:36Z</time>
      </trkpt>
      <trkpt lat="44.78912" lon="4.62323">
        <ele>417.35</ele>
        <time>2020-03-08T15:14:05Z</time>
      </trkpt>
      <trkpt lat="44.7893" lon="4.62342">
        <ele>416.61</ele>
        <time>2020-03-08T15:14:27Z</time>
      </trkpt>
      <trkpt lat="44.78947" lon="4.62357">
        <ele>415.84</ele>
        <time>2020-03-08T15:14:58Z</time>
      </trkpt>
      <trkpt lat="44.78953" lon="4.62384">
        <ele>413.94</ele>
        <time>2020-03-08T15:15:20Z</time>
      </trkpt>
      <trkpt lat="44.78966" lon="4.6242">
        <ele>412.3</ele>
        <time>2020-03-08T15:15:44Z</time>
      </trkpt>
      <trkpt lat="44.7899" lon="4.62439">
        <ele>410.26</ele>
        <time>2020-03-08T15:16:08Z</time>
      </trkpt>
      <trkpt lat="44.79023" lon="4.62449">
        <ele>408.89</ele>
        <time>2020-03-08T15:16:30Z</time>
      </trkpt>
      <trkpt lat="44.79051" lon="4.62443">
        <ele>407.7</ele>
        <time>2020-03-08T15:16:56Z</time>
      </trkpt>
      <trkpt lat="44.79084" lon="4.62428">
        <ele>405.43</ele>
        <time>2020-03-08T15:17:20Z</time>
      </trkpt>
      <trkpt lat="44.79113" lon="4.62426">
        <ele>404.64</ele>
        <time>2020-03-08T15:17:40Z</time>
      </trkpt>
      <trkpt lat="44.79136" lon="4.62432">
        <ele>402.61</ele>
        <time>2020-03-08T15:18:00Z</time>
      </trkpt>
      <trkpt lat="44.7916" lon="4.62435">
        <ele>401.53</ele>
        <time>2020-03-08T15:18:23Z</time>
      </trkpt>
      <trkpt lat="44.79182" lon="4.62429">
        <ele>399.72</ele>
        <time>2020-03-08T15:18:41Z</time>
      </trkpt>
      <trkpt lat="44.792" lon="4.62424">
        <ele>398.77</ele>
        <time>2020-03-08T15:18:57Z</time>
      </trkpt>
      <trkpt lat="44.79219" lon="4.62417">
        <ele>398.9</ele>
        <time>2020-03-08T15:19:14Z</time>
      </trkpt>
      <trkpt lat="44.79234" lon="4.62403">
        <ele>399.21</ele>
        <time>2020-03-08T15:19:32Z</time>
      </trkpt>
      <trkpt lat="44.79248" lon="4.62387">
        <ele>398.82</ele>
        <time>2020-03-08T15:20:09Z</time>
      </trkpt>
      <trkpt lat="44.79262" lon="4.62367">
        <ele>397.07</ele>
        <time>2020-03-08T15:20:26Z</time>
      </trkpt>
      <trkpt lat="44.79276" lon="4.62348">
        <ele>395.23</ele>
        <time>2020-03-08T15:20:43Z</time>
      </trkpt>
      <trkpt lat="44.7929" lon="4.62331">
        <ele>392.61</ele>
        <time>2020-03-08T15:21:00Z</time>
      </trkpt>
      <trkpt lat="44.7931" lon="4.6233">
        <ele>388.95</ele>
        <time>2020-03-08T15:21:22Z</time>
      </trkpt>
      <trkpt lat="44.79329" lon="4.62329">
        <ele>385.58</ele>
        <time>2020-03-08T15:21:40Z</time>
      </trkpt>
      <trkpt lat="44.79347" lon="4.62333">
        <ele>383</ele>
        <time>2020-03-08T15:21:59Z</time>
      </trkpt>
      <trkpt lat="44.79365" lon="4.62325">
        <ele>380.3</ele>
        <time>2020-03-08T15:22:17Z</time>
      </trkpt>
      <trkpt lat="44.7938" lon="4.62308">
        <ele>377.71</ele>
        <time>2020-03-08T15:22:34Z</time>
      </trkpt>
      <trkpt lat="44.79395" lon="4.62292">
        <ele>375.63</ele>
        <time>2020-03-08T15:22:51Z</time>
      </trkpt>
      <trkpt lat="44.79412" lon="4.62279">
        <ele>374.17</ele>
        <time>2020-03-08T15:23:13Z</time>
      </trkpt>
      <trkpt lat="44.79428" lon="4.62265">
        <ele>373.55</ele>
        <time>2020-03-08T15:23:30Z</time>
      </trkpt>
      <trkpt lat="44.79444" lon="4.6225">
        <ele>373.03</ele>
        <time>2020-03-08T15:23:47Z</time>
      </trkpt>
      <trkpt lat="44.79458" lon="4.62231">
        <ele>370.76</ele>
        <time>2020-03-08T15:24:05Z</time>
      </trkpt>
      <trkpt lat="44.7947" lon="4.62211">
        <ele>368.5</ele>
        <time>2020-03-08T15:24:25Z</time>
      </trkpt>
      <trkpt lat="44.79482" lon="4.6219">
        <ele>365.03</ele>
        <time>2020-03-08T15:24:44Z</time>
      </trkpt>
      <trkpt lat="44.79497" lon="4.62171">
        <ele>361.49</ele>
        <time>2020-03-08T15:25:04Z</time>
      </trkpt>
      <trkpt lat="44.79513" lon="4.62158">
        <ele>357.66</ele>
        <time>2020-03-08T15:25:24Z</time>
      </trkpt>
      <trkpt lat="44.79525" lon="4.62136">
        <ele>354.72</ele>
        <time>2020-03-08T15:25:43Z</time>
      </trkpt>
      <trkpt lat="44.79544" lon="4.62143">
        <ele>352.03</ele>
        <time>2020-03-08T15:26:08Z</time>
      </trkpt>
      <trkpt lat="44.7955" lon="4.62169">
        <ele>346.74</ele>
        <time>2020-03-08T15:26:33Z</time>
      </trkpt>
      <trkpt lat="44.79556" lon="4.62203">
        <ele>343.79</ele>
        <time>2020-03-08T15:27:00Z</time>
      </trkpt>
      <trkpt lat="44.79561" lon="4.62225">
        <ele>339.09</ele>
        <time>2020-03-08T15:27:32Z</time>
      </trkpt>
      <trkpt lat="44.79575" lon="4.62202">
        <ele>333.87</ele>
        <time>2020-03-08T15:27:56Z</time>
      </trkpt>
      <trkpt lat="44.79591" lon="4.62177">
        <ele>328.85</ele>
        <time>2020-03-08T15:28:24Z</time>
      </trkpt>
      <trkpt lat="44.79608" lon="4.62151">
        <ele>323.84</ele>
        <time>2020-03-08T15:28:53Z</time>
      </trkpt>
      <trkpt lat="44.79628" lon="4.62131">
        <ele>318.26</ele>
        <time>2020-03-08T15:29:21Z</time>
      </trkpt>
      <trkpt lat="44.79642" lon="4.62104">
        <ele>313.03</ele>
        <time>2020-03-08T15:29:48Z</time>
      </trkpt>
      <trkpt lat="44.79652" lon="4.62091">
        <ele>307.09</ele>
        <time>2020-03-08T15:30:19Z</time>
      </trkpt>
      <trkpt lat="44.79656" lon="4.62122">
        <ele>302.48</ele>
        <time>2020-03-08T15:30:52Z</time>
      </trkpt>
      <trkpt lat="44.79653" lon="4.62156">
        <ele>296.9</ele>
        <time>2020-03-08T15:31:17Z</time>
      </trkpt>
      <trkpt lat="44.79661" lon="4.62142">
        <ele>292.22</ele>
        <time>2020-03-08T15:31:46Z</time>
      </trkpt>
      <trkpt lat="44.79672" lon="4.62123">
        <ele>286.92</ele>
        <time>2020-03-08T15:32:16Z</time>
      </trkpt>
      <trkpt lat="44.79676" lon="4.6215">
        <ele>282.46</ele>
        <time>2020-03-08T15:32:41Z</time>
      </trkpt>
      <trkpt lat="44.79683" lon="4.62178">
        <ele>278.46</ele>
        <time>2020-03-08T15:33:03Z</time>
      </trkpt>
      <trkpt lat="44.79684" lon="4.62212">
        <ele>274.88</ele>
        <time>2020-03-08T15:33:27Z</time>
      </trkpt>
      <trkpt lat="44.79689" lon="4.62231">
        <ele>271.82</ele>
        <time>2020-03-08T15:34:10Z</time>
      </trkpt>
      <trkpt lat="44.79697" lon="4.62215">
        <ele>268.25</ele>
        <time>2020-03-08T15:34:55Z</time>
      </trkpt>
      <trkpt lat="44.7971" lon="4.62191">
        <ele>265.18</ele>
        <time>2020-03-08T15:35:19Z</time>
      </trkpt>
      <trkpt lat="44.79722" lon="4.62166">
        <ele>262.36</ele>
        <time>2020-03-08T15:35:42Z</time>
      </trkpt>
      <trkpt lat="44.79736" lon="4.62145">
        <ele>258.09</ele>
        <time>2020-03-08T15:36:13Z</time>
      </trkpt>
      <trkpt lat="44.79748" lon="4.62124">
        <ele>253.22</ele>
        <time>2020-03-08T15:36:40Z</time>
      </trkpt>
      <trkpt lat="44.79761" lon="4.62095">
        <ele>250.28</ele>
        <time>2020-03-08T15:37:03Z</time>
      </trkpt>
      <trkpt lat="44.79774" lon="4.62074">
        <ele>247.23</ele>
        <time>2020-03-08T15:37:24Z</time>
      </trkpt>
      <trkpt lat="44.7979" lon="4.62057">
        <ele>244.63</ele>
        <time>2020-03-08T15:37:44Z</time>
      </trkpt>
      <trkpt lat="44.79806" lon="4.62034">
        <ele>241.52</ele>
        <time>2020-03-08T15:38:06Z</time>
      </trkpt>
      <trkpt lat="44.79825" lon="4.62026">
        <ele>238.66</ele>
        <time>2020-03-08T15:38:27Z</time>
      </trkpt>
      <trkpt lat="44.79841" lon="4.62013">
        <ele>235.54</ele>
        <time>2020-03-08T15:38:46Z</time>
      </trkpt>
      <trkpt lat="44.79861" lon="4.62011">
        <ele>233.01</ele>
        <time>2020-03-08T15:39:09Z</time>
      </trkpt>
      <trkpt lat="44.7988" lon="4.61997">
        <ele>229.1</ele>
        <time>2020-03-08T15:39:36Z</time>
      </trkpt>
      <trkpt lat="44.79881" lon="4.61986">
        <ele>229.16</ele>
        <time>2020-03-08T15:42:15Z</time>
      </trkpt>
      <trkpt lat="44.79899" lon="4.61975">
        <ele>227.21</ele>
        <time>2020-03-08T15:43:10Z</time>
      </trkpt>
      <trkpt lat="44.79917" lon="4.61964">
        <ele>223.79</ele>
        <time>2020-03-08T15:43:30Z</time>
      </trkpt>
      <trkpt lat="44.79932" lon="4.61947">
        <ele>220.83</ele>
        <time>2020-03-08T15:43:50Z</time>
      </trkpt>
      <trkpt lat="44.79915" lon="4.61954">
        <ele>218.08</ele>
        <time>2020-03-08T15:44:22Z</time>
      </trkpt>
      <trkpt lat="44.79885" lon="4.61965">
        <ele>216.73</ele>
        <time>2020-03-08T15:44:52Z</time>
      </trkpt>
      <trkpt lat="44.79848" lon="4.61984">
        <ele>214.47</ele>
        <time>2020-03-08T15:45:27Z</time>
      </trkpt>
      <trkpt lat="44.79834" lon="4.61979">
        <ele>213.67</ele>
        <time>2020-03-08T15:46:41Z</time>
      </trkpt>
      <trkpt lat="44.7984" lon="4.61955">
        <ele>212.69</ele>
        <time>2020-03-08T15:47:05Z</time>
      </trkpt>
      <trkpt lat="44.79855" lon="4.6193">
        <ele>211.13</ele>
        <time>2020-03-08T15:47:28Z</time>
      </trkpt>
      <trkpt lat="44.79873" lon="4.61913">
        <ele>209.8</ele>
        <time>2020-03-08T15:47:49Z</time>
      </trkpt>
      <trkpt lat="44.79892" lon="4.61896">
        <ele>208.85</ele>
        <time>2020-03-08T15:48:09Z</time>
      </trkpt>
      <trkpt lat="44.79889" lon="4.61869">
        <ele>207.83</ele>
        <time>2020-03-08T15:48:33Z</time>
      </trkpt>
      <trkpt lat="44.79876" lon="4.61839">
        <ele>206.9</ele>
        <time>2020-03-08T15:48:57Z</time>
      </trkpt>
      <trkpt lat="44.79854" lon="4.61822">
        <ele>205.34</ele>
        <time>2020-03-08T15:49:23Z</time>
      </trkpt>
      <trkpt lat="44.7983" lon="4.61816">
        <ele>203.13</ele>
        <time>2020-03-08T15:49:52Z</time>
      </trkpt>
      <trkpt lat="44.79807" lon="4.61797">
        <ele>200.92</ele>
        <time>2020-03-08T15:50:14Z</time>
      </trkpt>
      <trkpt lat="44.79789" lon="4.61754">
        <ele>198.96</ele>
        <time>2020-03-08T15:50:40Z</time>
      </trkpt>
      <trkpt lat="44.79765" lon="4.61745">
        <ele>196.78</ele>
        <time>2020-03-08T15:51:07Z</time>
      </trkpt>
      <trkpt lat="44.79755" lon="4.61715">
        <ele>194.66</ele>
        <time>2020-03-08T15:51:29Z</time>
      </trkpt>
      <trkpt lat="44.79764" lon="4.61675">
        <ele>193.84</ele>
        <time>2020-03-08T15:51:56Z</time>
      </trkpt>
      <trkpt lat="44.79787" lon="4.61681">
        <ele>192.31</ele>
        <time>2020-03-08T15:52:20Z</time>
      </trkpt>
      <trkpt lat="44.79808" lon="4.61691">
        <ele>191.17</ele>
        <time>2020-03-08T15:52:39Z</time>
      </trkpt>
      <trkpt lat="44.79831" lon="4.61702">
        <ele>190.28</ele>
        <time>2020-03-08T15:52:59Z</time>
      </trkpt>
      <trkpt lat="44.79856" lon="4.6171">
        <ele>189</ele>
        <time>2020-03-08T15:53:21Z</time>
      </trkpt>
      <trkpt lat="44.7988" lon="4.61718">
        <ele>187.65</ele>
        <time>2020-03-08T15:53:43Z</time>
      </trkpt>
      <trkpt lat="44.79903" lon="4.61718">
        <ele>186.16</ele>
        <time>2020-03-08T15:54:05Z</time>
      </trkpt>
      <trkpt lat="44.79925" lon="4.61709">
        <ele>185.4</ele>
        <time>2020-03-08T15:54:26Z</time>
      </trkpt>
      <trkpt lat="44.79947" lon="4.61709">
        <ele>184.51</ele>
        <time>2020-03-08T15:54:47Z</time>
      </trkpt>
      <trkpt lat="44.7997" lon="4.61702">
        <ele>182.77</ele>
        <time>2020-03-08T15:55:13Z</time>
      </trkpt>
      <trkpt lat="44.79993" lon="4.61697">
        <ele>181.52</ele>
        <time>2020-03-08T15:55:37Z</time>
      </trkpt>
      <trkpt lat="44.80014" lon="4.61676">
        <ele>180.67</ele>
        <time>2020-03-08T15:56:05Z</time>
      </trkpt>
      <trkpt lat="44.80025" lon="4.61643">
        <ele>179.26</ele>
        <time>2020-03-08T15:56:36Z</time>
      </trkpt>
      <trkpt lat="44.80039" lon="4.6161">
        <ele>178.29</ele>
        <time>2020-03-08T15:57:03Z</time>
      </trkpt>
      <trkpt lat="44.80046" lon="4.61578">
        <ele>175.95</ele>
        <time>2020-03-08T15:57:34Z</time>
      </trkpt>
      <trkpt lat="44.80042" lon="4.61567">
        <ele>175.59</ele>
        <time>2020-03-08T15:59:27Z</time>
      </trkpt>
      <trkpt lat="44.80059" lon="4.61567">
        <ele>175.21</ele>
        <time>2020-03-08T16:00:33Z</time>
      </trkpt>
      <trkpt lat="44.80073" lon="4.61545">
        <ele>173.96</ele>
        <time>2020-03-08T16:00:55Z</time>
      </trkpt>
      <trkpt lat="44.80089" lon="4.6153">
        <ele>170.34</ele>
        <time>2020-03-08T16:01:14Z</time>
      </trkpt>
      <trkpt lat="44.80111" lon="4.61523">
        <ele>168.1</ele>
        <time>2020-03-08T16:01:34Z</time>
      </trkpt>
      <trkpt lat="44.8013" lon="4.61512">
        <ele>165.94</ele>
        <time>2020-03-08T16:01:53Z</time>
      </trkpt>
      <trkpt lat="44.80148" lon="4.61501">
        <ele>163.67</ele>
        <time>2020-03-08T16:02:19Z</time>
      </trkpt>
      <trkpt lat="44.80166" lon="4.61494">
        <ele>162.57</ele>
        <time>2020-03-08T16:02:36Z</time>
      </trkpt>
      <trkpt lat="44.80185" lon="4.61492">
        <ele>161.46</ele>
        <time>2020-03-08T16:02:55Z</time>
      </trkpt>
      <trkpt lat="44.80205" lon="4.6149">
        <ele>160.6</ele>
        <time>2020-03-08T16:03:12Z</time>
      </trkpt>
      <trkpt lat="44.80223" lon="4.61486">
        <ele>159.43</ele>
        <time>2020-03-08T16:03:29Z</time>
      </trkpt>
      <trkpt lat="44.80241" lon="4.61481">
        <ele>158.15</ele>
        <time>2020-03-08T16:03:47Z</time>
      </trkpt>
      <trkpt lat="44.80259" lon="4.61478">
        <ele>156.97</ele>
        <time>2020-03-08T16:04:04Z</time>
      </trkpt>
      <trkpt lat="44.80275" lon="4.61474">
        <ele>157.04</ele>
        <time>2020-03-08T16:04:55Z</time>
      </trkpt>
      <trkpt lat="44.80295" lon="4.61484">
        <ele>158</ele>
        <time>2020-03-08T16:05:25Z</time>
      </trkpt>
      <trkpt lat="44.80314" lon="4.61492">
        <ele>157.44</ele>
        <time>2020-03-08T16:05:48Z</time>
      </trkpt>
      <trkpt lat="44.80333" lon="4.61487">
        <ele>157.02</ele>
        <time>2020-03-08T16:06:10Z</time>
      </trkpt>
      <trkpt lat="44.80352" lon="4.61475">
        <ele>155.76</ele>
        <time>2020-03-08T16:06:26Z</time>
      </trkpt>
      <trkpt lat="44.80371" lon="4.61465">
        <ele>156.03</ele>
        <time>2020-03-08T16:06:43Z</time>
      </trkpt>
      <trkpt lat="44.80385" lon="4.61448">
        <ele>154.87</ele>
        <time>2020-03-08T16:07:00Z</time>
      </trkpt>
      <trkpt lat="44.80399" lon="4.61435">
        <ele>155.56</ele>
        <time>2020-03-08T16:07:35Z</time>
      </trkpt>
      <trkpt lat="44.80413" lon="4.61423">
        <ele>156.39</ele>
        <time>2020-03-08T16:08:13Z</time>
      </trkpt>
      <trkpt lat="44.80422" lon="4.61398">
        <ele>159.16</ele>
        <time>2020-03-08T16:08:45Z</time>
      </trkpt>
      <trkpt lat="44.80427" lon="4.61375">
        <ele>162.65</ele>
        <time>2020-03-08T16:09:15Z</time>
      </trkpt>
      <trkpt lat="44.80425" lon="4.61348">
        <ele>165.14</ele>
        <time>2020-03-08T16:09:38Z</time>
      </trkpt>
      <trkpt lat="44.80422" lon="4.61321">
        <ele>167.37</ele>
        <time>2020-03-08T16:09:58Z</time>
      </trkpt>
      <trkpt lat="44.80421" lon="4.61293">
        <ele>169.16</ele>
        <time>2020-03-08T16:10:20Z</time>
      </trkpt>
      <trkpt lat="44.80426" lon="4.61265">
        <ele>169.28</ele>
        <time>2020-03-08T16:10:47Z</time>
      </trkpt>
    </trkseg>
  </trk>
</gpx>